Time,TemperatureF,DewpointF,PressureIn,WindDirection,WindDirectionDegrees,WindSpeedMPH,WindSpeedGustMPH,Humidity,HourlyPrecipIn,Conditions,Clouds,dailyrainin,SoftwareType,DateUTC
2013-04-13 00:00:00,59.0,8.1,29.82,NW,308,13.8,21.9,13,0.00,RA,,0.00,WeatherDisplay:10.37,2013-04-13 04:00:00,
2013-04-13 00:05:00,58.2,7.5,29.82,NNW,333,10.3,17.3,13,0.00,RA,,0.00,WeatherDisplay:10.37,2013-04-13 04:05:00,
2013-04-13 00:10:00,59.0,8.1,29.82,West,274,12.3,17.3,13,0.00,CLR,,0.00,WeatherDisplay:10.37,2013-04-13 04:10:00,
2013-04-13 00:15:00,56.7,7.9,29.81,NW,323,12.3,19.6,14,0.00,CLR,,0.00,WeatherDisplay:10.37,2013-04-13 04:15:00,
2013-04-13 00:20:00,56.8,8.0,29.82,NW,319,12.3,23.0,14,0.00,CLR,,0.00,WeatherDisplay:10.37,2013-04-13 04:20:00,
2013-04-13 00:25:00,55.3,6.8,29.82,WNW,295,13.7,23.0,14,0.00,CLR,,0.00,WeatherDisplay:10.37,2013-04-13 04:25:00,
2013-04-13 00:26:00,56.8,8.0,29.82,NW,319,15.5,23.0,14,0.00,CLR,,0.00,WeatherDisplay:10.37,2013-04-13 04:26:00,
2013-04-13 00:30:00,55.6,7.1,29.83,WNW,301,12.3,17.3,14,0.00,CLR,,0.00,WeatherDisplay:10.37,2013-04-13 04:30:00,
2013-04-13 00:31:00,55.7,7.1,29.83,NNW,335,11.0,17.3,14,0.00,CLR,,0.00,WeatherDisplay:10.37,2013-04-13 04:31:00,
2013-04-13 00:35:00,56.0,7.4,29.83,NW,304,12.0,19.6,14,0.00,CLR,,0.00,WeatherDisplay:10.37,2013-04-13 04:35:00,
2013-04-13 00:36:00,55.3,6.8,29.83,NNW,340,12.3,19.6,14,0.00,CLR,,0.00,WeatherDisplay:10.37,2013-04-13 04:36:00,
2013-04-13 00:40:00,54.6,6.3,29.84,NW,319,13.3,19.6,14,0.00,CLR,,0.00,WeatherDisplay:10.37,2013-04-13 04:40:00,
2013-04-13 00:41:00,55.2,6.7,29.84,NW,322,12.8,21.9,14,0.00,CLR,,0.00,WeatherDisplay:10.37,2013-04-13 04:41:00,
2013-04-13 00:42:00,54.6,4.6,29.84,West,278,12.4,21.9,13,0.00,CLR,,0.00,WeatherDisplay:10.37,2013-04-13 04:42:00,
2013-04-13 00:46:00,55.3,6.8,29.84,NNW,337,12.0,13.8,14,0.00,CLR,,0.00,WeatherDisplay:10.37,2013-04-13 04:46:00,
2013-04-13 00:47:00,54.5,6.2,29.84,NNW,339,11.0,17.3,14,0.00,CLR,,0.00,WeatherDisplay:10.37,2013-04-13 04:47:00,
2013-04-13 00:52:00,54.3,6.0,29.85,NNW,328,11.2,11.5,14,0.00,CLR,,0.00,WeatherDisplay:10.37,2013-04-13 04:52:00,
2013-04-13 00:57:00,53.5,6.9,29.85,WNW,296,10.6,23.3,15,0.00,CLR,,0.00,WeatherDisplay:10.37,2013-04-13 04:57:00,
2013-04-13 01:02:00,54.0,7.3,29.85,NW,306,9.6,12.7,15,0.00,CLR,,0.00,WeatherDisplay:10.37,2013-04-13 05:02:00,
2013-04-13 01:07:00,52.7,6.3,29.85,WNW,302,9.8,20.9,15,0.00,CLR,,0.00,WeatherDisplay:10.37,2013-04-13 05:07:00,
2013-04-13 01:12:00,53.5,5.4,29.85,NW,326,12.3,25.3,14,0.00,CLR,,0.00,WeatherDisplay:10.37,2013-04-13 05:12:00,
2013-04-13 01:17:00,53.2,5.1,29.85,WNW,302,13.9,19.6,14,0.00,CLR,,0.00,WeatherDisplay:10.37,2013-04-13 05:17:00,
2013-04-13 01:18:00,53.2,5.1,29.85,WNW,302,13.9,19.6,14,0.00,CLR,,0.00,WeatherDisplay:10.37,2013-04-13 05:18:00,
2013-04-13 01:23:00,53.7,5.5,29.86,WNW,284,11.0,20.7,14,0.00,CLR,,0.00,WeatherDisplay:10.37,2013-04-13 05:23:00,
2013-04-13 01:28:00,52.5,4.6,29.86,NNW,335,12.8,17.3,14,0.00,CLR,,0.00,WeatherDisplay:10.37,2013-04-13 05:28:00,
2013-04-13 01:33:00,53.1,6.6,29.85,NW,313,12.0,16.1,15,0.00,CLR,,0.00,WeatherDisplay:10.37,2013-04-13 05:33:00,
2013-04-13 01:34:00,52.3,5.9,29.85,NW,313,11.5,16.1,15,0.00,CLR,,0.00,WeatherDisplay:10.37,2013-04-13 05:34:00,
2013-04-13 01:38:00,51.8,5.5,29.85,NW,319,9.4,16.1,15,0.00,CLR,,0.00,WeatherDisplay:10.37,2013-04-13 05:38:00,
2013-04-13 01:39:00,53.1,6.6,29.85,NW,308,9.8,16.1,15,0.00,CLR,,0.00,WeatherDisplay:10.37,2013-04-13 05:39:00,
2013-04-13 01:43:00,52.2,5.9,29.85,WNW,294,12.0,18.4,15,0.00,CLR,,0.00,WeatherDisplay:10.37,2013-04-13 05:43:00,
2013-04-13 01:44:00,52.2,5.9,29.85,NW,308,10.2,18.4,15,0.00,CLR,,0.00,WeatherDisplay:10.37,2013-04-13 05:44:00,
2013-04-13 01:48:00,51.9,5.6,29.85,NW,325,11.2,16.1,15,0.00,CLR,,0.00,WeatherDisplay:10.37,2013-04-13 05:48:00,
2013-04-13 01:49:00,51.7,3.9,29.85,NW,315,12.3,20.7,14,0.00,CLR,,0.00,WeatherDisplay:10.37,2013-04-13 05:49:00,
2013-04-13 01:53:00,51.4,3.7,29.85,WNW,298,10.8,18.4,14,0.00,CLR,,0.00,WeatherDisplay:10.37,2013-04-13 05:53:00,
2013-04-13 01:54:00,51.7,3.9,29.85,NNW,335,11.6,17.3,14,0.00,CLR,,0.00,WeatherDisplay:10.37,2013-04-13 05:54:00,
2013-04-13 01:55:00,53.3,6.7,29.85,WNW,287,10.6,17.3,15,0.00,CLR,,0.00,WeatherDisplay:10.37,2013-04-13 05:55:00,
2013-04-13 01:59:00,52.7,6.3,29.86,WNW,298,9.5,17.3,15,0.00,CLR,,0.00,WeatherDisplay:10.37,2013-04-13 05:59:00,
2013-04-13 02:00:00,52.1,4.3,29.86,NW,315,8.0,17.3,14,0.00,CLR,,0.00,WeatherDisplay:10.37,2013-04-13 06:00:00,
2013-04-13 02:04:00,51.4,6.6,29.86,West,271,9.9,12.7,16,0.00,CLR,,0.00,WeatherDisplay:10.37,2013-04-13 06:04:00,
2013-04-13 02:05:00,51.8,5.5,29.86,NW,325,10.0,15.0,15,0.00,CLR,,0.00,WeatherDisplay:10.37,2013-04-13 06:05:00,
2013-04-13 02:09:00,52.3,4.4,29.86,WNW,282,11.4,18.4,14,0.00,CLR,,0.00,WeatherDisplay:10.37,2013-04-13 06:09:00,
2013-04-13 02:10:00,52.3,4.4,29.86,WNW,296,12.3,18.4,14,0.00,CLR,,0.00,WeatherDisplay:10.37,2013-04-13 06:10:00,
2013-04-13 02:14:00,52.6,6.2,29.86,West,264,10.4,15.0,15,0.00,CLR,,0.00,WeatherDisplay:10.37,2013-04-13 06:14:00,
2013-04-13 02:15:00,52.1,4.3,29.86,WNW,302,10.7,15.0,14,0.00,CLR,,0.00,WeatherDisplay:10.37,2013-04-13 06:15:00,
2013-04-13 02:20:00,52.6,4.7,29.86,WNW,292,8.7,12.7,14,0.00,CLR,,0.00,WeatherDisplay:10.37,2013-04-13 06:20:00,
2013-04-13 02:24:00,52.0,4.2,29.86,West,278,8.7,17.3,14,0.00,CLR,,0.00,WeatherDisplay:10.37,2013-04-13 06:24:00,
2013-04-13 02:25:00,52.2,4.3,29.86,NW,308,9.1,15.9,14,0.00,CLR,,0.00,WeatherDisplay:10.37,2013-04-13 06:25:00,
2013-04-13 02:30:00,52.9,4.9,29.86,WNW,289,10.7,11.5,14,0.00,CLR,,0.00,WeatherDisplay:10.37,2013-04-13 06:30:00,
2013-04-13 02:35:00,51.2,3.5,29.86,NW,315,9.2,12.7,14,0.00,CLR,,0.00,WeatherDisplay:10.37,2013-04-13 06:35:00,
2013-04-13 02:36:00,51.3,3.6,29.86,NW,305,7.6,13.2,14,0.00,CLR,,0.00,WeatherDisplay:10.37,2013-04-13 06:36:00,
2013-04-13 02:40:00,51.1,5.0,29.86,NW,316,7.3,9.2,15,0.00,CLR,,0.00,WeatherDisplay:10.37,2013-04-13 06:40:00,
2013-04-13 02:41:00,51.8,4.0,29.86,West,274,7.7,11.5,14,0.00,CLR,,0.00,WeatherDisplay:10.37,2013-04-13 06:41:00,
2013-04-13 02:47:00,51.9,2.5,29.86,WNW,301,11.0,18.4,13,0.00,CLR,,0.00,WeatherDisplay:10.37,2013-04-13 06:47:00,
2013-04-13 02:48:00,52.3,4.4,29.86,NW,305,6.9,17.3,14,0.00,CLR,,0.00,WeatherDisplay:10.37,2013-04-13 06:48:00,
2013-04-13 02:52:00,52.4,4.5,29.86,WNW,282,8.5,12.7,14,0.00,CLR,,0.00,WeatherDisplay:10.37,2013-04-13 06:52:00,
2013-04-13 02:53:00,52.4,2.9,29.86,WNW,296,11.0,17.3,13,0.00,CLR,,0.00,WeatherDisplay:10.37,2013-04-13 06:53:00,
2013-04-13 02:57:00,52.8,4.8,29.86,WNW,284,8.3,10.4,14,0.00,CLR,,0.00,WeatherDisplay:10.37,2013-04-13 06:57:00,
2013-04-13 02:58:00,51.8,4.0,29.86,WNW,292,8.0,11.5,14,0.00,CLR,,0.00,WeatherDisplay:10.37,2013-04-13 06:58:00,
2013-04-13 03:03:00,51.3,2.0,29.86,NW,311,10.0,15.0,13,0.00,CLR,,0.00,WeatherDisplay:10.37,2013-04-13 07:03:00,
2013-04-13 03:08:00,52.5,4.6,29.86,NW,322,7.4,14.1,14,0.00,CLR,,0.00,WeatherDisplay:10.37,2013-04-13 07:08:00,
2013-04-13 03:13:00,51.8,4.0,29.86,NW,319,8.5,11.5,14,0.00,CLR,,0.00,WeatherDisplay:10.37,2013-04-13 07:13:00,
2013-04-13 03:18:00,52.0,4.2,29.86,WNW,292,8.7,12.7,14,0.00,CLR,,0.00,WeatherDisplay:10.37,2013-04-13 07:18:00,
2013-04-13 03:23:00,52.4,2.9,29.87,WSW,258,10.8,19.6,13,0.00,CLR,,0.00,WeatherDisplay:10.37,2013-04-13 07:23:00,
2013-04-13 03:24:00,52.4,4.5,29.87,WSW,247,7.5,18.4,14,0.00,CLR,,0.00,WeatherDisplay:10.37,2013-04-13 07:24:00,
2013-04-13 03:28:00,52.3,4.4,29.87,West,274,9.4,21.9,14,0.00,CLR,,0.00,WeatherDisplay:10.37,2013-04-13 07:28:00,
2013-04-13 03:29:00,52.5,4.6,29.87,NW,311,7.7,14.7,14,0.00,CLR,,0.00,WeatherDisplay:10.37,2013-04-13 07:29:00,
2013-04-13 03:34:00,53.1,5.1,29.87,WNW,284,9.4,15.0,14,0.00,CLR,,0.00,WeatherDisplay:10.37,2013-04-13 07:34:00,
2013-04-13 03:39:00,52.2,4.3,29.87,NW,318,9.5,12.7,14,0.00,CLR,,0.00,WeatherDisplay:10.37,2013-04-13 07:39:00,
2013-04-13 03:44:00,51.4,3.7,29.87,NW,305,7.6,18.4,14,0.00,CLR,,0.00,WeatherDisplay:10.37,2013-04-13 07:44:00,
2013-04-13 03:45:00,52.8,4.8,29.87,West,278,7.8,10.4,14,0.00,CLR,,0.00,WeatherDisplay:10.37,2013-04-13 07:45:00,
2013-04-13 03:49:00,52.1,4.3,29.87,WNW,291,9.5,15.0,14,0.00,CLR,,0.00,WeatherDisplay:10.37,2013-04-13 07:49:00,
2013-04-13 03:50:00,51.4,3.7,29.87,West,272,9.4,12.7,14,0.00,CLR,,0.00,WeatherDisplay:10.37,2013-04-13 07:50:00,
2013-04-13 03:54:00,51.9,4.1,29.88,West,265,7.2,13.8,14,0.00,CLR,,0.00,WeatherDisplay:10.37,2013-04-13 07:54:00,
2013-04-13 03:55:00,52.3,4.4,29.88,WNW,301,7.1,12.7,14,0.00,CLR,,0.00,WeatherDisplay:10.37,2013-04-13 07:55:00,
2013-04-13 03:59:00,52.0,4.2,29.88,NW,315,11.3,13.8,14,0.00,CLR,,0.00,WeatherDisplay:10.37,2013-04-13 07:59:00,
2013-04-13 04:00:00,52.0,4.2,29.88,NW,318,9.4,17.3,14,0.00,CLR,,0.00,WeatherDisplay:10.37,2013-04-13 08:00:00,
2013-04-13 04:04:00,52.3,4.4,29.88,NNW,329,12.1,19.6,14,0.00,CLR,,0.00,WeatherDisplay:10.37,2013-04-13 08:04:00,
2013-04-13 04:05:00,51.4,3.7,29.88,WNW,282,6.8,13.8,14,0.00,CLR,,0.00,WeatherDisplay:10.37,2013-04-13 08:05:00,
2013-04-13 04:09:00,52.2,5.9,29.88,NW,305,6.7,13.8,15,0.00,CLR,,0.00,WeatherDisplay:10.37,2013-04-13 08:09:00,
2013-04-13 04:10:00,52.1,5.8,29.88,NW,323,6.2,11.5,15,0.00,CLR,,0.00,WeatherDisplay:10.37,2013-04-13 08:10:00,
2013-04-13 04:15:00,51.6,5.4,29.88,WNW,301,9.3,11.5,15,0.00,CLR,,0.00,WeatherDisplay:10.37,2013-04-13 08:15:00,
2013-04-13 04:20:00,50.8,4.7,29.88,NNW,344,6.3,11.5,15,0.00,CLR,,0.00,WeatherDisplay:10.37,2013-04-13 08:20:00,
2013-04-13 04:21:00,51.5,5.3,29.88,NW,325,8.0,11.5,15,0.00,CLR,,0.00,WeatherDisplay:10.37,2013-04-13 08:21:00,
2013-04-13 04:25:00,50.9,6.2,29.88,West,267,3.1,6.9,16,0.00,CLR,,0.00,WeatherDisplay:10.37,2013-04-13 08:25:00,
2013-04-13 04:26:00,52.1,5.8,29.88,West,270,8.0,16.1,15,0.00,CLR,,0.00,WeatherDisplay:10.37,2013-04-13 08:26:00,
2013-04-13 04:30:00,51.4,6.6,29.88,NW,320,7.1,9.2,16,0.00,CLR,,0.00,WeatherDisplay:10.37,2013-04-13 08:30:00,
2013-04-13 04:33:00,51.6,5.4,29.89,NNW,335,6.8,9.8,15,0.00,CLR,,0.00,WeatherDisplay:10.37,2013-04-13 08:33:00,
2013-04-13 04:36:00,51.6,5.4,29.89,WSW,257,6.8,10.4,15,0.00,CLR,,0.00,WeatherDisplay:10.37,2013-04-13 08:36:00,
2013-04-13 04:38:00,51.9,5.6,29.89,NW,312,8.2,12.7,15,0.00,CLR,,0.00,WeatherDisplay:10.37,2013-04-13 08:38:00,
2013-04-13 04:42:00,51.7,5.4,29.89,West,270,7.2,9.2,15,0.00,CLR,,0.00,WeatherDisplay:10.37,2013-04-13 08:42:00,
2013-04-13 04:43:00,51.6,5.4,29.89,North,354,10.6,10.6,15,0.00,CLR,,0.00,WeatherDisplay:10.37,2013-04-13 08:43:00,
2013-04-13 04:47:00,52.3,5.9,29.89,WNW,294,9.0,12.7,15,0.00,CLR,,0.00,WeatherDisplay:10.37,2013-04-13 08:47:00,
2013-04-13 04:48:00,51.0,4.9,29.89,WNW,285,8.3,15.0,15,0.00,CLR,,0.00,WeatherDisplay:10.37,2013-04-13 08:48:00,
2013-04-13 04:52:00,51.7,6.9,29.89,West,278,5.9,8.2,16,0.00,CLR,,0.00,WeatherDisplay:10.37,2013-04-13 08:52:00,
2013-04-13 04:54:00,51.5,5.3,29.88,WSW,246,14.2,19.6,15,0.00,CLR,,0.00,WeatherDisplay:10.37,2013-04-13 08:54:00,
2013-04-13 04:57:00,51.2,6.5,29.88,NW,306,6.0,15.0,16,0.00,CLR,,0.00,WeatherDisplay:10.37,2013-04-13 08:57:00,
2013-04-13 04:59:00,52.2,7.3,29.88,NW,319,9.7,19.6,16,0.00,CLR,,0.00,WeatherDisplay:10.37,2013-04-13 08:59:00,
2013-04-13 05:03:00,51.5,6.7,29.88,WNW,298,8.2,17.3,16,0.00,CLR,,0.00,WeatherDisplay:10.37,2013-04-13 09:03:00,
2013-04-13 05:04:00,51.7,6.9,29.88,NW,318,9.1,15.0,16,0.00,CLR,,0.00,WeatherDisplay:10.37,2013-04-13 09:04:00,
2013-04-13 05:08:00,51.6,6.8,29.88,West,267,6.4,13.8,16,0.00,CLR,,0.00,WeatherDisplay:10.37,2013-04-13 09:08:00,
2013-04-13 05:09:00,51.6,6.8,29.89,NW,315,5.2,8.3,16,0.00,CLR,,0.00,WeatherDisplay:10.37,2013-04-13 09:09:00,
2013-04-13 05:13:00,51.5,6.7,29.89,West,275,7.6,8.1,16,0.00,CLR,,0.00,WeatherDisplay:10.37,2013-04-13 09:13:00,
2013-04-13 05:14:00,51.1,6.4,29.89,WNW,302,7.8,14.0,16,0.00,CLR,,0.00,WeatherDisplay:10.37,2013-04-13 09:14:00,
2013-04-13 05:19:00,52.0,7.1,29.89,NW,322,7.7,12.7,16,0.00,CLR,,0.00,WeatherDisplay:10.37,2013-04-13 09:19:00,
2013-04-13 05:24:00,51.5,9.3,29.89,North,360,4.6,7.8,18,0.00,CLR,,0.00,WeatherDisplay:10.37,2013-04-13 09:24:00,
2013-04-13 05:29:00,51.4,8.0,29.90,NW,325,8.9,18.4,17,0.00,CLR,,0.00,WeatherDisplay:10.37,2013-04-13 09:29:00,
2013-04-13 05:30:00,52.1,8.5,29.90,WNW,299,11.3,18.4,17,0.00,CLR,,0.00,WeatherDisplay:10.37,2013-04-13 09:30:00,
2013-04-13 05:35:00,51.1,7.7,29.90,WNW,299,7.6,16.1,17,0.00,CLR,,0.00,WeatherDisplay:10.37,2013-04-13 09:35:00,
2013-04-13 05:41:00,52.1,9.8,29.90,NW,306,7.0,10.4,18,0.00,CLR,,0.00,WeatherDisplay:10.37,2013-04-13 09:41:00,
2013-04-13 05:46:00,51.3,9.2,29.90,NNW,343,5.9,10.4,18,0.00,CLR,,0.00,WeatherDisplay:10.37,2013-04-13 09:46:00,
2013-04-13 05:51:00,51.1,10.2,29.90,WNW,302,3.2,8.8,19,0.00,CLR,,0.00,WeatherDisplay:10.37,2013-04-13 09:51:00,
2013-04-13 05:57:00,51.1,10.2,29.90,NW,320,10.5,15.0,19,0.00,CLR,,0.00,WeatherDisplay:10.37,2013-04-13 09:57:00,
2013-04-13 06:02:00,50.9,10.0,29.90,WNW,301,6.3,9.2,19,0.00,CLR,,0.00,WeatherDisplay:10.37,2013-04-13 10:02:00,
2013-04-13 06:08:00,50.9,12.3,29.91,NW,313,3.5,5.8,21,0.00,CLR,,0.00,WeatherDisplay:10.37,2013-04-13 10:08:00,
2013-04-13 06:13:00,51.5,11.7,29.91,West,261,9.5,15.0,20,0.00,CLR,,0.00,WeatherDisplay:10.37,2013-04-13 10:13:00,
2013-04-13 06:14:00,50.4,10.8,29.91,WNW,292,11.1,12.7,20,0.00,CLR,,0.00,WeatherDisplay:10.37,2013-04-13 10:14:00,
2013-04-13 06:19:00,51.9,12.0,29.92,NW,322,7.6,13.8,20,0.00,CLR,,0.00,WeatherDisplay:10.37,2013-04-13 10:19:00,
2013-04-13 06:24:00,51.3,12.6,29.92,WNW,294,5.6,9.0,21,0.00,CLR,,0.00,WeatherDisplay:10.37,2013-04-13 10:24:00,
2013-04-13 06:29:00,51.4,12.7,29.92,West,267,3.9,10.4,21,0.00,CLR,,0.00,WeatherDisplay:10.37,2013-04-13 10:29:00,
2013-04-13 06:31:00,51.2,12.5,29.92,NW,325,5.6,9.2,21,0.00,CLR,,0.00,WeatherDisplay:10.37,2013-04-13 10:31:00,
2013-04-13 06:35:00,50.6,12.0,29.92,West,281,5.4,11.5,21,0.00,CLR,,0.00,WeatherDisplay:10.37,2013-04-13 10:35:00,
2013-04-13 06:36:00,51.2,12.5,29.92,NNW,335,6.2,6.9,21,0.00,CLR,,0.00,WeatherDisplay:10.37,2013-04-13 10:36:00,
2013-04-13 06:40:00,51.6,12.9,29.92,NW,306,10.1,10.4,21,0.00,CLR,,0.00,WeatherDisplay:10.37,2013-04-13 10:40:00,
2013-04-13 06:41:00,51.7,11.9,29.93,West,275,11.2,19.6,20,0.00,CLR,,0.00,WeatherDisplay:10.37,2013-04-13 10:41:00,
2013-04-13 06:45:00,50.9,12.3,29.93,WNW,291,6.7,12.7,21,0.00,CLR,,0.00,WeatherDisplay:10.37,2013-04-13 10:45:00,
2013-04-13 06:46:00,51.2,12.5,29.93,North,356,5.4,12.7,21,0.00,CLR,,0.00,WeatherDisplay:10.37,2013-04-13 10:46:00,
2013-04-13 06:51:00,51.0,12.4,29.93,West,264,8.4,13.2,21,0.00,CLR,,0.00,WeatherDisplay:10.37,2013-04-13 10:51:00,
2013-04-13 06:56:00,51.8,13.0,29.93,NNW,347,7.5,15.0,21,0.00,CLR,,0.00,WeatherDisplay:10.37,2013-04-13 10:56:00,
2013-04-13 06:57:00,51.1,12.5,29.93,NNW,332,6.4,11.5,21,0.00,CLR,,0.00,WeatherDisplay:10.37,2013-04-13 10:57:00,
2013-04-13 07:01:00,51.2,12.5,29.93,WNW,288,4.1,15.8,21,0.00,CLR,,0.00,WeatherDisplay:10.37,2013-04-13 11:01:00,
2013-04-13 07:02:00,51.0,12.4,29.93,NNW,332,5.9,13.8,21,0.00,CLR,,0.00,WeatherDisplay:10.37,2013-04-13 11:02:00,
2013-04-13 07:07:00,51.3,13.7,29.93,NNW,328,4.8,12.7,22,0.00,CLR,,0.00,WeatherDisplay:10.37,2013-04-13 11:07:00,
2013-04-13 07:08:00,51.1,13.5,29.93,WNW,282,2.2,12.7,22,0.00,CLR,,0.00,WeatherDisplay:10.37,2013-04-13 11:08:00,
2013-04-13 07:13:00,51.2,13.6,29.94,West,271,4.8,9.2,22,0.00,CLR,,0.00,WeatherDisplay:10.37,2013-04-13 11:13:00,
2013-04-13 07:18:00,51.1,14.5,29.94,NNW,328,3.5,6.9,23,0.00,CLR,,0.00,WeatherDisplay:10.37,2013-04-13 11:18:00,
2013-04-13 07:23:00,50.5,13.0,29.94,NW,325,9.6,10.4,22,0.00,CLR,,0.00,WeatherDisplay:10.37,2013-04-13 11:23:00,
2013-04-13 07:28:00,51.2,13.6,29.95,NNW,342,5.7,11.5,22,0.00,CLR,,0.00,WeatherDisplay:10.37,2013-04-13 11:28:00,
2013-04-13 07:29:00,51.3,13.7,29.95,NW,322,7.9,11.5,22,0.00,CLR,,0.00,WeatherDisplay:10.37,2013-04-13 11:29:00,
2013-04-13 07:34:00,50.9,12.3,29.95,NW,325,6.6,10.4,21,0.00,CLR,,0.00,WeatherDisplay:10.37,2013-04-13 11:34:00,
2013-04-13 07:39:00,51.2,13.6,29.95,NW,311,6.9,10.4,22,0.00,CLR,,0.00,WeatherDisplay:10.37,2013-04-13 11:39:00,
2013-04-13 07:44:00,50.6,13.1,29.95,NW,323,8.4,13.8,22,0.00,CLR,,0.00,WeatherDisplay:10.37,2013-04-13 11:44:00,
2013-04-13 07:45:00,51.0,13.4,29.95,West,275,7.8,11.5,22,0.00,CLR,,0.00,WeatherDisplay:10.37,2013-04-13 11:45:00,
2013-04-13 07:49:00,50.9,13.3,29.95,NW,313,6.9,9.2,22,0.00,CLR,,0.00,WeatherDisplay:10.37,2013-04-13 11:49:00,
2013-04-13 07:50:00,51.2,13.6,29.95,WSW,256,11.6,17.3,22,0.00,CLR,,0.00,WeatherDisplay:10.37,2013-04-13 11:50:00,
2013-04-13 07:54:00,50.5,12.0,29.96,NW,311,5.9,9.6,21,0.00,CLR,,0.00,WeatherDisplay:10.37,2013-04-13 11:54:00,
2013-04-13 07:55:00,50.8,12.2,29.96,NW,320,7.7,13.8,21,0.00,CLR,,0.00,WeatherDisplay:10.37,2013-04-13 11:55:00,
2013-04-13 08:00:00,51.9,13.1,29.96,NW,309,8.4,13.8,21,0.00,CLR,,0.00,WeatherDisplay:10.37,2013-04-13 12:00:00,
2013-04-13 08:05:00,51.4,11.6,29.96,West,264,8.9,13.8,20,0.00,CLR,,0.00,WeatherDisplay:10.37,2013-04-13 12:05:00,
2013-04-13 08:10:00,52.1,12.2,29.96,West,270,9.6,18.4,20,0.00,CLR,,0.00,WeatherDisplay:10.37,2013-04-13 12:10:00,
2013-04-13 08:15:00,51.2,11.4,29.96,WNW,301,9.1,13.8,20,0.00,CLR,,0.00,WeatherDisplay:10.37,2013-04-13 12:15:00,
2013-04-13 08:17:00,51.5,11.7,29.96,WSW,254,11.8,15.0,20,0.00,CLR,,0.00,WeatherDisplay:10.37,2013-04-13 12:17:00,
2013-04-13 08:20:00,51.4,10.4,29.96,NNW,340,9.0,15.0,19,0.00,CLR,,0.00,WeatherDisplay:10.37,2013-04-13 12:20:00,
2013-04-13 08:22:00,51.6,11.8,29.96,NW,325,7.1,10.4,20,0.00,CLR,,0.00,WeatherDisplay:10.37,2013-04-13 12:22:00,
2013-04-13 08:26:00,52.2,11.1,29.96,SW,215,5.2,11.5,19,0.00,CLR,,0.00,WeatherDisplay:10.37,2013-04-13 12:26:00,
2013-04-13 08:27:00,51.4,9.2,29.97,WNW,288,9.7,12.7,18,0.00,CLR,,0.00,WeatherDisplay:10.37,2013-04-13 12:27:00,
2013-04-13 08:32:00,51.5,10.5,29.96,NW,323,9.2,15.0,19,0.00,CLR,,0.00,WeatherDisplay:10.37,2013-04-13 12:32:00,
2013-04-13 08:37:00,51.2,10.3,29.96,West,265,8.5,12.7,19,0.00,CLR,,0.00,WeatherDisplay:10.37,2013-04-13 12:37:00,
2013-04-13 08:43:00,52.5,10.1,29.96,WNW,284,7.4,11.5,18,0.00,CLR,,0.00,WeatherDisplay:10.37,2013-04-13 12:43:00,
2013-04-13 08:48:00,52.0,7.1,29.97,NW,308,7.1,15.0,16,0.00,CLR,,0.00,WeatherDisplay:10.37,2013-04-13 12:48:00,
2013-04-13 08:54:00,51.8,6.9,29.97,WNW,287,9.8,11.5,16,0.00,CLR,,0.00,WeatherDisplay:10.37,2013-04-13 12:54:00,
2013-04-13 09:00:00,52.4,7.4,29.97,West,280,5.7,9.2,16,0.00,CLR,,0.00,WeatherDisplay:10.37,2013-04-13 13:00:00,
2013-04-13 09:02:00,53.2,6.7,29.98,North,350,7.7,11.5,15,0.00,CLR,,0.00,WeatherDisplay:10.37,2013-04-13 13:02:00,
2013-04-13 09:05:00,51.7,3.9,29.97,WNW,296,9.5,15.0,14,0.00,CLR,,0.00,WeatherDisplay:10.37,2013-04-13 13:05:00,
2013-04-13 09:08:00,52.7,6.3,29.98,NNW,339,8.9,15.5,15,0.00,CLR,,0.00,WeatherDisplay:10.37,2013-04-13 13:08:00,
2013-04-13 09:11:00,51.9,5.6,29.98,NW,304,11.4,15.0,15,0.00,CLR,,0.00,WeatherDisplay:10.37,2013-04-13 13:11:00,
2013-04-13 09:13:00,52.2,5.9,29.97,West,271,7.5,9.8,15,0.00,CLR,,0.00,WeatherDisplay:10.37,2013-04-13 13:13:00,
2013-04-13 09:17:00,53.4,5.3,29.98,NW,313,9.4,13.8,14,0.00,CLR,,0.00,WeatherDisplay:10.37,2013-04-13 13:17:00,
2013-04-13 09:18:00,52.4,6.0,29.97,WSW,258,10.1,19.6,15,0.00,CLR,,0.00,WeatherDisplay:10.37,2013-04-13 13:18:00,
2013-04-13 09:22:00,51.8,6.9,29.97,West,272,9.1,18.4,16,0.00,CLR,,0.00,WeatherDisplay:10.37,2013-04-13 13:22:00,
2013-04-13 09:26:00,51.6,3.9,29.97,North,6,8.9,11.5,14,0.00,CLR,,0.00,WeatherDisplay:10.37,2013-04-13 13:26:00,
2013-04-13 09:27:00,52.0,7.1,29.97,North,8,7.5,10.4,16,0.00,CLR,,0.00,WeatherDisplay:10.37,2013-04-13 13:27:00,
2013-04-13 09:32:00,53.5,5.4,29.97,NNW,333,6.5,9.2,14,0.00,CLR,,0.00,WeatherDisplay:10.37,2013-04-13 13:32:00,
2013-04-13 09:37:00,54.7,7.9,29.97,NW,319,5.6,6.9,15,0.00,CLR,,0.00,WeatherDisplay:10.37,2013-04-13 13:37:00,
2013-04-13 09:38:00,54.3,6.0,29.98,WNW,302,6.7,11.5,14,0.00,CLR,,0.00,WeatherDisplay:10.37,2013-04-13 13:38:00,
2013-04-13 09:42:00,54.5,6.2,29.98,WNW,289,2.8,9.2,14,0.00,CLR,,0.00,WeatherDisplay:10.37,2013-04-13 13:42:00,
2013-04-13 09:44:00,54.2,5.9,29.98,WSW,251,6.9,9.2,14,0.00,CLR,,0.00,WeatherDisplay:10.37,2013-04-13 13:44:00,
2013-04-13 09:48:00,54.3,4.4,29.98,NNW,329,7.3,10.4,13,0.00,CLR,,0.00,WeatherDisplay:10.37,2013-04-13 13:48:00,
2013-04-13 09:49:00,53.2,5.1,29.98,West,265,8.1,10.4,14,0.00,CLR,,0.00,WeatherDisplay:10.37,2013-04-13 13:49:00,
2013-04-13 09:53:00,54.4,6.1,29.98,WSW,254,5.4,8.1,14,0.00,CLR,,0.00,WeatherDisplay:10.37,2013-04-13 13:53:00,
2013-04-13 09:54:00,54.0,4.2,29.98,North,349,6.7,7.2,13,0.00,CLR,,0.00,WeatherDisplay:10.37,2013-04-13 13:54:00,
2013-04-13 09:58:00,54.0,5.8,29.98,WNW,287,7.1,13.8,14,0.00,CLR,,0.00,WeatherDisplay:10.37,2013-04-13 13:58:00,
2013-04-13 09:59:00,54.2,5.9,29.98,NNW,332,8.7,12.3,14,0.00,CLR,,0.00,WeatherDisplay:10.37,2013-04-13 13:59:00,
2013-04-13 10:03:00,54.8,4.8,29.98,WNW,295,6.1,13.8,13,0.00,CLR,,0.00,WeatherDisplay:10.37,2013-04-13 14:03:00,
2013-04-13 10:04:00,53.9,5.7,29.98,NW,322,7.9,11.5,14,0.00,CLR,,0.00,WeatherDisplay:10.37,2013-04-13 14:04:00,
2013-04-13 10:09:00,54.9,6.5,29.98,WNW,299,5.8,12.7,14,0.00,CLR,,0.00,WeatherDisplay:10.37,2013-04-13 14:09:00,
2013-04-13 10:14:00,55.6,5.4,29.98,WNW,288,6.2,11.5,13,0.00,CLR,,0.00,WeatherDisplay:10.37,2013-04-13 14:14:00,
2013-04-13 10:15:00,55.1,5.0,29.98,WNW,296,8.1,11.5,13,0.00,CLR,,0.00,WeatherDisplay:10.37,2013-04-13 14:15:00,
2013-04-13 10:19:00,55.9,5.7,29.98,North,349,2.5,8.1,13,0.00,CLR,,0.00,WeatherDisplay:10.37,2013-04-13 14:19:00,
2013-04-13 10:20:00,55.7,5.5,29.98,SW,216,0.5,7.3,13,0.00,CLR,,0.00,WeatherDisplay:10.37,2013-04-13 14:20:00,
2013-04-13 10:24:00,57.8,11.8,29.98,WNW,284,6.9,8.1,16,0.00,CLR,,0.00,WeatherDisplay:10.37,2013-04-13 14:24:00,
2013-04-13 10:25:00,57.8,5.4,29.98,West,280,5.6,11.5,12,0.00,CLR,,0.00,WeatherDisplay:10.37,2013-04-13 14:25:00,
2013-04-13 10:29:00,58.7,4.2,29.98,North,359,7.4,9.3,11,0.00,CLR,,0.00,WeatherDisplay:10.37,2013-04-13 14:29:00,
2013-04-13 10:30:00,57.1,4.9,29.98,NNW,344,5.5,10.4,12,0.00,CLR,,0.00,WeatherDisplay:10.37,2013-04-13 14:30:00,
2013-04-13 10:34:00,57.0,4.8,29.98,WNW,287,3.5,10.4,12,0.00,CLR,,0.00,WeatherDisplay:10.37,2013-04-13 14:34:00,
2013-04-13 10:35:00,56.8,4.6,29.98,West,280,4.6,9.2,12,0.00,CLR,,0.00,WeatherDisplay:10.37,2013-04-13 14:35:00,
2013-04-13 10:40:00,58.9,8.1,29.98,NW,306,2.8,5.8,13,0.00,CLR,,0.00,WeatherDisplay:10.37,2013-04-13 14:40:00,
2013-04-13 10:41:00,58.6,6.1,29.98,WNW,294,8.1,9.2,12,0.00,CLR,,0.00,WeatherDisplay:10.37,2013-04-13 14:41:00,
2013-04-13 10:45:00,59.2,8.3,29.98,North,350,3.6,10.0,13,0.00,CLR,,0.00,WeatherDisplay:10.37,2013-04-13 14:45:00,
2013-04-13 10:47:00,58.1,3.8,29.98,NNW,328,4.8,9.2,11,0.00,CLR,,0.00,WeatherDisplay:10.37,2013-04-13 14:47:00,
2013-04-13 10:50:00,58.3,3.9,29.98,NW,325,8.0,11.1,11,0.00,CLR,,0.00,WeatherDisplay:10.37,2013-04-13 14:50:00,
2013-04-13 10:53:00,58.6,7.8,29.98,West,265,6.2,10.6,13,0.00,CLR,,0.00,WeatherDisplay:10.37,2013-04-13 14:53:00,
2013-04-13 10:55:00,60.1,9.0,29.98,NNW,333,0.0,3.5,13,0.00,CLR,,0.00,WeatherDisplay:10.37,2013-04-13 14:55:00,
2013-04-13 10:58:00,60.6,3.6,29.98,West,265,3.6,6.7,10,0.00,CLR,,0.00,WeatherDisplay:10.37,2013-04-13 14:58:00,
2013-04-13 11:01:00,60.8,3.8,29.98,WSW,256,3.5,5.8,10,0.00,CLR,,0.00,WeatherDisplay:10.37,2013-04-13 15:01:00,
2013-04-13 11:04:00,61.0,1.7,29.98,NW,312,5.3,10.4,9,0.00,CLR,,0.00,WeatherDisplay:10.37,2013-04-13 15:04:00,
2013-04-13 11:06:00,60.5,1.3,29.98,West,272,1.2,5.8,9,0.00,CLR,,0.00,WeatherDisplay:10.37,2013-04-13 15:06:00,
2013-04-13 11:09:00,60.5,3.5,29.98,North,7,6.0,8.1,10,0.00,CLR,,0.00,WeatherDisplay:10.37,2013-04-13 15:09:00,
2013-04-13 11:11:00,60.8,5.9,29.98,NNE,21,0.0,5.8,11,0.00,CLR,,0.00,WeatherDisplay:10.37,2013-04-13 15:11:00,
2013-04-13 11:15:00,60.7,3.7,29.98,NW,319,5.7,8.1,10,0.00,CLR,,0.00,WeatherDisplay:10.37,2013-04-13 15:15:00,
2013-04-13 11:17:00,60.7,5.8,29.98,NW,322,7.3,8.1,11,0.00,CLR,,0.00,WeatherDisplay:10.37,2013-04-13 15:17:00,
2013-04-13 11:20:00,61.1,1.7,29.98,NW,323,0.0,4.6,9,0.00,CLR,,0.00,WeatherDisplay:10.37,2013-04-13 15:20:00,
2013-04-13 11:22:00,61.4,10.0,29.99,NNW,346,4.6,7.9,13,0.00,CLR,,0.00,WeatherDisplay:10.37,2013-04-13 15:22:00,
2013-04-13 11:25:00,62.5,0.3,29.98,WNW,291,3.2,6.9,8,0.00,CLR,,0.00,WeatherDisplay:10.37,2013-04-13 15:25:00,
2013-04-13 11:28:00,61.9,-0.2,29.98,SSW,205,6.0,11.5,8,0.00,CLR,,0.00,WeatherDisplay:10.37,2013-04-13 15:28:00,
2013-04-13 11:30:00,62.0,4.7,29.98,WSW,247,5.6,9.2,10,0.00,CLR,,0.00,WeatherDisplay:10.37,2013-04-13 15:30:00,
2013-04-13 11:33:00,62.0,2.4,29.98,West,260,2.9,6.9,9,0.00,CLR,,0.00,WeatherDisplay:10.37,2013-04-13 15:33:00,
2013-04-13 11:35:00,62.7,0.4,29.98,West,272,5.8,9.2,8,0.00,CLR,,0.00,WeatherDisplay:10.37,2013-04-13 15:35:00,
2013-04-13 11:38:00,62.6,2.9,29.98,SW,232,7.4,15.0,9,0.00,CLR,,0.00,WeatherDisplay:10.37,2013-04-13 15:38:00,
2013-04-13 11:40:00,62.4,2.7,29.98,WNW,282,8.0,9.9,9,0.00,CLR,,0.00,WeatherDisplay:10.37,2013-04-13 15:40:00,
2013-04-13 11:43:00,62.5,0.3,29.99,WSW,237,11.0,17.3,8,0.00,CLR,,0.00,WeatherDisplay:10.37,2013-04-13 15:43:00,
2013-04-13 11:45:00,62.1,2.5,29.99,WSW,237,4.8,12.7,9,0.00,CLR,,0.00,WeatherDisplay:10.37,2013-04-13 15:45:00,
2013-04-13 11:48:00,62.3,7.0,29.98,SE,137,3.8,6.9,11,0.00,CLR,,0.00,WeatherDisplay:10.37,2013-04-13 15:48:00,
2013-04-13 11:50:00,62.5,-2.6,29.98,WNW,282,4.9,5.8,7,0.00,CLR,,0.00,WeatherDisplay:10.37,2013-04-13 15:50:00,
2013-04-13 11:54:00,63.0,7.6,29.98,NW,304,6.2,13.8,11,0.00,CLR,,0.00,WeatherDisplay:10.37,2013-04-13 15:54:00,
2013-04-13 11:55:00,62.8,3.0,29.98,West,278,5.3,9.2,9,0.00,CLR,,0.00,WeatherDisplay:10.37,2013-04-13 15:55:00,
2013-04-13 11:59:00,62.5,2.8,29.98,SW,230,4.7,10.6,9,0.00,CLR,,0.00,WeatherDisplay:10.37,2013-04-13 15:59:00,
2013-04-13 12:00:00,62.2,2.6,29.98,SW,227,6.7,10.4,9,0.00,CLR,,0.00,WeatherDisplay:10.37,2013-04-13 16:00:00,
2013-04-13 12:04:00,63.4,0.9,29.98,West,277,7.1,9.2,8,0.00,CLR,,0.00,WeatherDisplay:10.37,2013-04-13 16:04:00,
2013-04-13 12:05:00,63.4,5.8,29.98,WSW,256,5.2,9.2,10,0.00,CLR,,0.00,WeatherDisplay:10.37,2013-04-13 16:05:00,
2013-04-13 12:09:00,63.8,3.8,29.98,SW,234,0.5,4.6,9,0.00,CLR,,0.00,WeatherDisplay:10.37,2013-04-13 16:09:00,
2013-04-13 12:10:00,64.3,-1.2,29.98,West,274,2.0,5.8,7,0.00,CLR,,0.00,WeatherDisplay:10.37,2013-04-13 16:10:00,
2013-04-13 12:15:00,65.6,2.6,29.98,NW,306,2.2,8.6,8,0.00,CLR,,0.00,WeatherDisplay:10.37,2013-04-13 16:15:00,
2013-04-13 12:16:00,64.8,-0.9,29.98,West,278,9.8,13.8,7,0.00,CLR,,0.00,WeatherDisplay:10.37,2013-04-13 16:16:00,
2013-04-13 12:20:00,63.0,-2.2,29.98,NW,320,9.7,13.8,7,0.00,CLR,,0.00,WeatherDisplay:10.37,2013-04-13 16:20:00,
2013-04-13 12:22:00,62.8,0.5,29.98,WSW,250,5.8,11.5,8,0.00,CLR,,0.00,WeatherDisplay:10.37,2013-04-13 16:22:00,
2013-04-13 12:25:00,63.1,-2.1,29.98,West,275,1.7,6.9,7,0.00,CLR,,0.00,WeatherDisplay:10.37,2013-04-13 16:25:00,
2013-04-13 12:28:00,64.1,1.5,29.98,WNW,287,2.1,10.4,8,0.00,CLR,,0.00,WeatherDisplay:10.37,2013-04-13 16:28:00,
2013-04-13 12:30:00,65.5,-3.6,29.98,South,176,3.4,4.6,6,0.00,CLR,,0.00,WeatherDisplay:10.37,2013-04-13 16:30:00,
2013-04-13 12:33:00,66.9,-2.6,29.97,SSE,155,1.9,4.6,6,0.00,CLR,,0.00,WeatherDisplay:10.37,2013-04-13 16:33:00,
2013-04-13 12:37:00,67.2,-2.4,29.97,WSW,258,0.5,0.0,6,0.00,CLR,,0.00,WeatherDisplay:10.37,2013-04-13 16:37:00,
2013-04-13 12:38:00,67.3,-2.3,29.97,WSW,258,0.0,3.5,6,0.00,CLR,,0.00,WeatherDisplay:10.37,2013-04-13 16:38:00,
2013-04-13 12:43:00,64.4,-1.2,29.97,SW,227,9.4,12.6,7,0.00,CLR,,0.00,WeatherDisplay:10.37,2013-04-13 16:43:00,
2013-04-13 12:48:00,64.3,-1.2,29.97,West,263,4.3,8.8,7,0.00,CLR,,0.00,WeatherDisplay:10.37,2013-04-13 16:48:00,
2013-04-13 12:53:00,64.6,-1.0,29.96,WSW,246,5.8,9.2,7,0.00,CLR,,0.00,WeatherDisplay:10.37,2013-04-13 16:53:00,
2013-04-13 12:54:00,65.0,2.1,29.96,WNW,302,5.8,9.2,8,0.00,CLR,,0.00,WeatherDisplay:10.37,2013-04-13 16:54:00,
2013-04-13 12:59:00,66.4,0.3,29.96,West,280,4.7,11.5,7,0.00,CLR,,0.00,WeatherDisplay:10.37,2013-04-13 16:59:00,
2013-04-13 13:04:00,65.4,-3.7,29.96,NW,315,4.4,8.1,6,0.00,CLR,,0.00,WeatherDisplay:10.37,2013-04-13 17:04:00,
2013-04-13 13:09:00,66.0,-3.2,29.96,West,277,4.9,10.4,6,0.00,CLR,,0.00,WeatherDisplay:10.37,2013-04-13 17:09:00,
2013-04-13 13:10:00,65.3,-3.7,29.96,West,275,7.5,10.4,6,0.00,CLR,,0.00,WeatherDisplay:10.37,2013-04-13 17:10:00,
2013-04-13 13:15:00,65.6,-3.5,29.96,SW,234,10.5,18.1,6,0.00,CLR,,0.00,WeatherDisplay:10.37,2013-04-13 17:15:00,
2013-04-13 13:20:00,66.6,-2.8,29.95,West,272,7.4,10.4,6,0.00,CLR,,0.00,WeatherDisplay:10.37,2013-04-13 17:20:00,
2013-04-13 13:26:00,66.6,-2.8,29.95,WSW,243,9.2,12.7,6,0.00,CLR,,0.00,WeatherDisplay:10.37,2013-04-13 17:26:00,
2013-04-13 13:32:00,66.9,-2.6,29.95,WNW,294,10.1,17.3,6,0.00,CLR,,0.00,WeatherDisplay:10.37,2013-04-13 17:32:00,
2013-04-13 13:37:00,66.4,-2.9,29.95,North,4,8.2,11.5,6,0.00,CLR,,0.00,WeatherDisplay:10.37,2013-04-13 17:37:00,
2013-04-13 13:42:00,66.7,-2.7,29.95,West,268,6.8,13.2,6,0.00,CLR,,0.00,WeatherDisplay:10.37,2013-04-13 17:42:00,
2013-04-13 13:47:00,66.9,-2.6,29.95,WNW,298,6.0,8.1,6,0.00,CLR,,0.00,WeatherDisplay:10.37,2013-04-13 17:47:00,
2013-04-13 13:48:00,67.0,-2.5,29.95,SW,217,7.9,8.1,6,0.00,CLR,,0.00,WeatherDisplay:10.37,2013-04-13 17:48:00,
2013-04-13 13:52:00,67.1,-6.2,29.95,SSW,192,12.0,15.0,5,0.00,CLR,,0.00,WeatherDisplay:10.37,2013-04-13 17:52:00,
2013-04-13 13:53:00,67.0,-6.3,29.95,WSW,246,12.3,20.7,5,0.00,CLR,,0.00,WeatherDisplay:10.37,2013-04-13 17:53:00,
2013-04-13 13:59:00,67.2,-6.2,29.95,West,277,7.0,12.7,5,0.00,CLR,,0.00,WeatherDisplay:10.37,2013-04-13 17:59:00,
2013-04-13 14:00:00,67.9,-5.7,29.94,SSW,202,5.7,10.4,5,0.00,CLR,,0.00,WeatherDisplay:10.37,2013-04-13 18:00:00,
2013-04-13 14:04:00,67.8,-5.7,29.95,West,275,9.0,12.7,5,0.00,CLR,,0.00,WeatherDisplay:10.37,2013-04-13 18:04:00,
2013-04-13 14:05:00,67.4,-6.0,29.95,WSW,256,7.5,11.5,5,0.00,CLR,,0.00,WeatherDisplay:10.37,2013-04-13 18:05:00,
2013-04-13 14:09:00,68.0,-1.8,29.94,WNW,294,3.4,8.3,6,0.00,CLR,,0.00,WeatherDisplay:10.37,2013-04-13 18:09:00,
2013-04-13 14:10:00,68.1,-5.5,29.94,WNW,284,5.5,9.2,5,0.00,CLR,,0.00,WeatherDisplay:10.37,2013-04-13 18:10:00,
2013-04-13 14:14:00,68.7,-5.1,29.94,WNW,299,6.2,9.2,5,0.00,CLR,,0.00,WeatherDisplay:10.37,2013-04-13 18:14:00,
2013-04-13 14:15:00,68.1,-10.1,29.94,WNW,288,11.9,13.9,4,0.00,CLR,,0.00,WeatherDisplay:10.37,2013-04-13 18:15:00,
2013-04-13 14:19:00,68.2,-5.5,29.94,SW,232,6.7,11.3,5,0.00,CLR,,0.00,WeatherDisplay:10.37,2013-04-13 18:19:00,
2013-04-13 14:22:00,68.3,-5.4,29.94,West,272,7.0,13.8,5,0.00,CLR,,0.00,WeatherDisplay:10.37,2013-04-13 18:22:00,
2013-04-13 14:24:00,69.2,-4.7,29.94,WNW,282,6.0,15.4,5,0.00,CLR,,0.00,WeatherDisplay:10.37,2013-04-13 18:24:00,
2013-04-13 14:27:00,69.2,-4.7,29.94,SSW,210,5.7,10.4,5,0.00,CLR,,0.00,WeatherDisplay:10.37,2013-04-13 18:27:00,
2013-04-13 14:32:00,69.4,-9.2,29.93,WNW,288,6.7,10.4,4,0.00,CLR,,0.00,WeatherDisplay:10.37,2013-04-13 18:32:00,
2013-04-13 14:37:00,69.3,-4.7,29.93,NW,323,7.9,11.5,5,0.00,CLR,,0.00,WeatherDisplay:10.37,2013-04-13 18:37:00,
2013-04-13 14:38:00,69.0,-4.9,29.93,West,277,5.9,10.4,5,0.00,CLR,,0.00,WeatherDisplay:10.37,2013-04-13 18:38:00,
2013-04-13 14:42:00,69.5,-9.1,29.93,WNW,291,8.2,12.7,4,0.00,CLR,,0.00,WeatherDisplay:10.37,2013-04-13 18:42:00,
2013-04-13 14:43:00,69.5,-9.1,29.93,WSW,258,8.3,12.7,4,0.00,CLR,,0.00,WeatherDisplay:10.37,2013-04-13 18:43:00,
2013-04-13 14:47:00,69.8,-4.3,29.93,WNW,291,3.9,8.1,5,0.00,CLR,,0.00,WeatherDisplay:10.37,2013-04-13 18:47:00,
2013-04-13 14:48:00,69.5,-4.5,29.93,NW,311,5.4,8.2,5,0.00,CLR,,0.00,WeatherDisplay:10.37,2013-04-13 18:48:00,
2013-04-13 14:52:00,69.5,-4.5,29.93,WSW,254,9.5,13.8,5,0.00,CLR,,0.00,WeatherDisplay:10.37,2013-04-13 18:52:00,
2013-04-13 14:53:00,69.4,-9.2,29.93,West,274,9.5,13.8,4,0.00,CLR,,0.00,WeatherDisplay:10.37,2013-04-13 18:53:00,
2013-04-13 14:58:00,69.4,-4.6,29.92,WSW,239,9.7,15.0,5,0.00,CLR,,0.00,WeatherDisplay:10.37,2013-04-13 18:58:00,
2013-04-13 15:03:00,70.0,-8.8,29.92,West,274,7.6,18.4,4,0.00,CLR,,0.00,WeatherDisplay:10.37,2013-04-13 19:03:00,
2013-04-13 15:08:00,70.5,-8.4,29.92,West,267,6.2,8.1,4,0.00,CLR,,0.00,WeatherDisplay:10.37,2013-04-13 19:08:00,
2013-04-13 15:13:00,69.7,-9.0,29.92,WSW,254,8.4,13.8,4,0.00,CLR,,0.00,WeatherDisplay:10.37,2013-04-13 19:13:00,
2013-04-13 15:14:00,70.3,-8.6,29.92,WSW,250,7.1,10.4,4,0.00,CLR,,0.00,WeatherDisplay:10.37,2013-04-13 19:14:00,
2013-04-13 15:18:00,70.6,-8.4,29.92,West,278,6.2,8.1,4,0.00,CLR,,0.00,WeatherDisplay:10.37,2013-04-13 19:18:00,
2013-04-13 15:19:00,70.7,-8.3,29.92,WNW,296,7.0,9.5,4,0.00,CLR,,0.00,WeatherDisplay:10.37,2013-04-13 19:19:00,
2013-04-13 15:23:00,70.5,-8.4,29.91,WSW,244,13.1,20.7,4,0.00,CLR,,0.00,WeatherDisplay:10.37,2013-04-13 19:23:00,
2013-04-13 15:24:00,70.5,-8.4,29.91,WNW,288,11.4,20.7,4,0.00,CLR,,0.00,WeatherDisplay:10.37,2013-04-13 19:24:00,
2013-04-13 15:28:00,70.4,-8.5,29.91,NW,312,2.3,10.4,4,0.00,CLR,,0.00,WeatherDisplay:10.37,2013-04-13 19:28:00,
2013-04-13 15:29:00,70.6,-8.4,29.91,WSW,257,3.2,10.4,4,0.00,CLR,,0.00,WeatherDisplay:10.37,2013-04-13 19:29:00,
2013-04-13 15:33:00,71.2,-8.0,29.91,West,263,10.5,16.1,4,0.00,CLR,,0.00,WeatherDisplay:10.37,2013-04-13 19:33:00,
2013-04-13 15:34:00,71.3,-7.9,29.91,West,274,8.6,15.0,4,0.00,CLR,,0.00,WeatherDisplay:10.37,2013-04-13 19:34:00,
2013-04-13 15:38:00,71.0,-8.1,29.91,WNW,282,5.1,9.2,4,0.00,CLR,,0.00,WeatherDisplay:10.37,2013-04-13 19:38:00,
2013-04-13 15:39:00,71.2,-8.0,29.91,NW,304,4.7,9.2,4,0.00,CLR,,0.00,WeatherDisplay:10.37,2013-04-13 19:39:00,
2013-04-13 15:44:00,71.3,-7.9,29.91,WSW,237,9.0,11.5,4,0.00,CLR,,0.00,WeatherDisplay:10.37,2013-04-13 19:44:00,
2013-04-13 15:49:00,71.5,-7.7,29.90,West,280,8.9,15.0,4,0.00,CLR,,0.00,WeatherDisplay:10.37,2013-04-13 19:49:00,
2013-04-13 15:50:00,71.3,-7.9,29.90,NNW,343,9.6,15.0,4,0.00,CLR,,0.00,WeatherDisplay:10.37,2013-04-13 19:50:00,
2013-04-13 15:54:00,71.0,-3.5,29.90,WNW,294,3.2,8.1,5,0.00,CLR,,0.00,WeatherDisplay:10.37,2013-04-13 19:54:00,
2013-04-13 15:55:00,71.2,-8.0,29.90,SW,223,1.4,4.6,4,0.00,CLR,,0.00,WeatherDisplay:10.37,2013-04-13 19:55:00,
2013-04-13 15:59:00,72.3,-13.0,29.90,West,272,7.3,13.8,3,0.00,CLR,,0.00,WeatherDisplay:10.37,2013-04-13 19:59:00,
2013-04-13 16:00:00,72.2,-13.1,29.90,West,261,7.7,13.8,3,0.00,CLR,,0.00,WeatherDisplay:10.37,2013-04-13 20:00:00,
2013-04-13 16:04:00,73.3,-6.5,29.90,NW,309,3.7,6.9,4,0.00,CLR,,0.00,WeatherDisplay:10.37,2013-04-13 20:04:00,
2013-04-13 16:05:00,73.3,-12.3,29.90,NW,322,4.4,10.6,3,0.00,CLR,,0.00,WeatherDisplay:10.37,2013-04-13 20:05:00,
2013-04-13 16:09:00,73.1,-12.5,29.90,South,169,5.8,10.4,3,0.00,CLR,,0.00,WeatherDisplay:10.37,2013-04-13 20:09:00,
2013-04-13 16:10:00,72.9,-12.6,29.89,South,188,9.9,21.9,3,0.00,CLR,,0.00,WeatherDisplay:10.37,2013-04-13 20:10:00,
2013-04-13 16:14:00,72.0,-13.2,29.90,West,278,4.9,13.8,3,0.00,CLR,,0.00,WeatherDisplay:10.37,2013-04-13 20:14:00,
2013-04-13 16:15:00,72.1,-13.2,29.90,West,271,5.3,9.2,3,0.00,CLR,,0.00,WeatherDisplay:10.37,2013-04-13 20:15:00,
2013-04-13 16:19:00,72.7,-12.8,29.90,West,270,9.0,16.1,3,0.00,CLR,,0.00,WeatherDisplay:10.37,2013-04-13 20:19:00,
2013-04-13 16:20:00,72.9,-12.6,29.90,West,264,8.4,16.1,3,0.00,CLR,,0.00,WeatherDisplay:10.37,2013-04-13 20:20:00,
2013-04-13 16:25:00,73.6,-12.1,29.89,WSW,244,4.9,9.2,3,0.00,CLR,,0.00,WeatherDisplay:10.37,2013-04-13 20:25:00,
2013-04-13 16:30:00,72.9,-12.6,29.89,West,264,10.4,16.0,3,0.00,CLR,,0.00,WeatherDisplay:10.37,2013-04-13 20:30:00,
2013-04-13 16:31:00,72.6,-12.8,29.89,West,267,13.0,18.4,3,0.00,CLR,,0.00,WeatherDisplay:10.37,2013-04-13 20:31:00,
2013-04-13 16:35:00,72.8,-12.7,29.89,WSW,239,8.1,16.1,3,0.00,CLR,,0.00,WeatherDisplay:10.37,2013-04-13 20:35:00,
2013-04-13 16:36:00,73.3,-12.3,29.89,WNW,296,5.3,11.5,3,0.00,CLR,,0.00,WeatherDisplay:10.37,2013-04-13 20:36:00,
2013-04-13 16:37:00,73.2,-12.4,29.89,West,281,6.0,10.4,3,0.00,CLR,,0.00,WeatherDisplay:10.37,2013-04-13 20:37:00,
2013-04-13 16:40:00,73.3,-12.3,29.89,WNW,296,10.4,15.0,3,0.00,CLR,,0.00,WeatherDisplay:10.37,2013-04-13 20:40:00,
2013-04-13 16:41:00,73.4,-12.3,29.89,NW,326,8.2,13.8,3,0.00,CLR,,0.00,WeatherDisplay:10.37,2013-04-13 20:41:00,
2013-04-13 16:42:00,73.1,-12.5,29.89,WNW,287,9.2,11.5,3,0.00,CLR,,0.00,WeatherDisplay:10.37,2013-04-13 20:42:00,
2013-04-13 16:45:00,73.0,-12.6,29.89,WNW,299,11.3,17.7,3,0.00,CLR,,0.00,WeatherDisplay:10.37,2013-04-13 20:45:00,
2013-04-13 16:46:00,72.6,-20.8,29.89,WSW,254,12.8,19.6,2,0.00,CLR,,0.00,WeatherDisplay:10.37,2013-04-13 20:46:00,
2013-04-13 16:47:00,72.5,-12.9,29.89,WSW,258,12.5,18.4,3,0.00,CLR,,0.00,WeatherDisplay:10.37,2013-04-13 20:47:00,
2013-04-13 16:50:00,72.7,-20.7,29.90,West,268,12.9,17.3,2,0.00,CLR,,0.00,WeatherDisplay:10.37,2013-04-13 20:50:00,
2013-04-13 16:51:00,72.0,-13.2,29.90,WNW,302,10.4,20.7,3,0.00,CLR,,0.00,WeatherDisplay:10.37,2013-04-13 20:51:00,
2013-04-13 16:52:00,72.4,-13.0,29.90,West,274,8.9,17.3,3,0.00,CLR,,0.00,WeatherDisplay:10.37,2013-04-13 20:52:00,
2013-04-13 16:55:00,72.0,-13.2,29.90,West,274,11.1,17.3,3,0.00,CLR,,0.00,WeatherDisplay:10.37,2013-04-13 20:55:00,
2013-04-13 16:56:00,72.7,-12.8,29.89,WSW,241,7.4,17.3,3,0.00,CLR,,0.00,WeatherDisplay:10.37,2013-04-13 20:56:00,
2013-04-13 16:57:00,72.6,-12.8,29.89,WNW,302,8.9,11.5,3,0.00,CLR,,0.00,WeatherDisplay:10.37,2013-04-13 20:57:00,
2013-04-13 17:01:00,72.8,-20.6,29.90,WSW,257,11.5,15.0,2,0.00,CLR,,0.00,WeatherDisplay:10.37,2013-04-13 21:01:00,
2013-04-13 17:02:00,72.9,-20.6,29.90,WNW,291,10.7,18.4,2,0.00,CLR,,0.00,WeatherDisplay:10.37,2013-04-13 21:02:00,
2013-04-13 17:07:00,72.8,-20.6,29.90,WNW,288,9.0,17.3,2,0.00,CLR,,0.00,WeatherDisplay:10.37,2013-04-13 21:07:00,
2013-04-13 17:08:00,73.0,-12.6,29.90,WSW,243,9.6,17.3,3,0.00,CLR,,0.00,WeatherDisplay:10.37,2013-04-13 21:08:00,
2013-04-13 17:12:00,72.3,-13.0,29.90,North,10,10.2,15.0,3,0.00,CLR,,0.00,WeatherDisplay:10.37,2013-04-13 21:12:00,
2013-04-13 17:13:00,72.5,-12.9,29.90,West,281,7.6,15.0,3,0.00,CLR,,0.00,WeatherDisplay:10.37,2013-04-13 21:13:00,
2013-04-13 17:17:00,72.2,-13.1,29.90,NW,305,12.3,23.0,3,0.00,CLR,,0.00,WeatherDisplay:10.37,2013-04-13 21:17:00,
2013-04-13 17:18:00,72.2,-13.1,29.90,West,278,12.7,18.4,3,0.00,CLR,,0.00,WeatherDisplay:10.37,2013-04-13 21:18:00,
2013-04-13 17:22:00,72.5,-7.0,29.90,WNW,298,5.1,6.9,4,0.00,CLR,,0.00,WeatherDisplay:10.37,2013-04-13 21:22:00,
2013-04-13 17:23:00,72.2,-7.3,29.90,NW,311,4.8,6.9,4,0.00,CLR,,0.00,WeatherDisplay:10.37,2013-04-13 21:23:00,
2013-04-13 17:27:00,71.7,-13.4,29.90,NW,320,12.1,17.3,3,0.00,CLR,,0.00,WeatherDisplay:10.37,2013-04-13 21:27:00,
2013-04-13 17:28:00,71.5,-13.6,29.90,NW,315,12.2,17.3,3,0.00,CLR,,0.00,WeatherDisplay:10.37,2013-04-13 21:28:00,
2013-04-13 17:29:00,71.7,-13.4,29.90,NW,325,8.8,16.1,3,0.00,CLR,,0.00,WeatherDisplay:10.37,2013-04-13 21:29:00,
2013-04-13 17:32:00,72.4,-13.0,29.90,WNW,288,7.8,12.7,3,0.00,CLR,,0.00,WeatherDisplay:10.37,2013-04-13 21:32:00,
2013-04-13 17:33:00,72.1,-13.2,29.90,WNW,298,8.4,12.7,3,0.00,CLR,,0.00,WeatherDisplay:10.37,2013-04-13 21:33:00,
2013-04-13 17:34:00,72.3,-13.0,29.90,West,280,9.0,11.9,3,0.00,CLR,,0.00,WeatherDisplay:10.37,2013-04-13 21:34:00,
2013-04-13 17:37:00,71.8,-13.4,29.90,NW,311,13.5,20.7,3,0.00,CLR,,0.00,WeatherDisplay:10.37,2013-04-13 21:37:00,
2013-04-13 17:38:00,71.4,-13.6,29.90,NNW,339,14.7,20.7,3,0.00,CLR,,0.00,WeatherDisplay:10.37,2013-04-13 21:38:00,
2013-04-13 17:39:00,71.0,-13.9,29.90,NW,325,14.0,19.6,3,0.00,CLR,,0.00,WeatherDisplay:10.37,2013-04-13 21:39:00,
2013-04-13 17:43:00,71.9,-13.3,29.91,WNW,288,11.5,15.0,3,0.00,CLR,,0.00,WeatherDisplay:10.37,2013-04-13 21:43:00,
2013-04-13 17:44:00,71.7,-13.4,29.91,NW,305,8.3,16.1,3,0.00,CLR,,0.00,WeatherDisplay:10.37,2013-04-13 21:44:00,
2013-04-13 17:48:00,72.0,-21.2,29.91,SW,223,10.0,13.4,2,0.00,CLR,,0.00,WeatherDisplay:10.37,2013-04-13 21:48:00,
2013-04-13 17:49:00,72.4,-13.0,29.91,NW,315,6.1,15.0,3,0.00,CLR,,0.00,WeatherDisplay:10.37,2013-04-13 21:49:00,
2013-04-13 17:53:00,72.0,-13.2,29.91,West,263,9.7,16.1,3,0.00,CLR,,0.00,WeatherDisplay:10.37,2013-04-13 21:53:00,
2013-04-13 17:54:00,71.7,-13.4,29.91,NNW,347,9.6,12.7,3,0.00,CLR,,0.00,WeatherDisplay:10.37,2013-04-13 21:54:00,
2013-04-13 17:58:00,71.7,-13.4,29.92,WNW,285,12.7,13.8,3,0.00,CLR,,0.00,WeatherDisplay:10.37,2013-04-13 21:58:00,
2013-04-13 17:59:00,72.0,-13.2,29.92,SW,233,10.4,16.1,3,0.00,CLR,,0.00,WeatherDisplay:10.37,2013-04-13 21:59:00,
2013-04-13 18:03:00,71.8,-13.4,29.92,NNW,347,9.9,13.8,3,0.00,CLR,,0.00,WeatherDisplay:10.37,2013-04-13 22:03:00,
2013-04-13 18:04:00,71.9,-13.3,29.92,NW,325,9.9,12.7,3,0.00,CLR,,0.00,WeatherDisplay:10.37,2013-04-13 22:04:00,
2013-04-13 18:08:00,72.1,-13.2,29.92,WNW,298,8.1,15.0,3,0.00,CLR,,0.00,WeatherDisplay:10.37,2013-04-13 22:08:00,
2013-04-13 18:09:00,71.7,-21.4,29.92,NW,304,9.5,15.0,2,0.00,CLR,,0.00,WeatherDisplay:10.37,2013-04-13 22:09:00,
2013-04-13 18:10:00,71.8,-21.3,29.92,WNW,291,10.5,13.8,2,0.00,CLR,,0.00,WeatherDisplay:10.37,2013-04-13 22:10:00,
2013-04-13 18:13:00,71.2,-21.7,29.92,WNW,294,12.3,18.4,2,0.00,CLR,,0.00,WeatherDisplay:10.37,2013-04-13 22:13:00,
2013-04-13 18:14:00,71.3,-21.6,29.92,NW,312,11.2,18.4,2,0.00,CLR,,0.00,WeatherDisplay:10.37,2013-04-13 22:14:00,
2013-04-13 18:15:00,71.3,-21.6,29.92,NW,319,7.1,18.4,2,0.00,CLR,,0.00,WeatherDisplay:10.37,2013-04-13 22:15:00,
2013-04-13 18:19:00,72.2,-13.1,29.93,West,278,5.7,9.2,3,0.00,CLR,,0.00,WeatherDisplay:10.37,2013-04-13 22:19:00,
2013-04-13 18:20:00,71.6,-13.5,29.93,NW,306,8.0,10.4,3,0.00,CLR,,0.00,WeatherDisplay:10.37,2013-04-13 22:20:00,
2013-04-13 18:24:00,72.0,-13.2,29.93,WSW,253,6.4,9.2,3,0.00,CLR,,0.00,WeatherDisplay:10.37,2013-04-13 22:24:00,
2013-04-13 18:25:00,71.9,-21.2,29.93,West,280,9.6,12.7,2,0.00,CLR,,0.00,WeatherDisplay:10.37,2013-04-13 22:25:00,
2013-04-13 18:29:00,71.4,-13.6,29.93,WNW,284,10.9,15.0,3,0.00,CLR,,0.00,WeatherDisplay:10.37,2013-04-13 22:29:00,
2013-04-13 18:30:00,71.5,-21.5,29.93,WNW,282,9.6,15.0,2,0.00,CLR,,0.00,WeatherDisplay:10.37,2013-04-13 22:30:00,
2013-04-13 18:34:00,70.8,-21.9,29.93,WNW,298,12.3,20.7,2,0.00,CLR,,0.00,WeatherDisplay:10.37,2013-04-13 22:34:00,
2013-04-13 18:35:00,70.7,-22.0,29.93,West,280,10.8,20.7,2,0.00,CLR,,0.00,WeatherDisplay:10.37,2013-04-13 22:35:00,
2013-04-13 18:39:00,71.4,-21.5,29.93,WNW,282,9.2,9.2,2,0.00,CLR,,0.00,WeatherDisplay:10.37,2013-04-13 22:39:00,
2013-04-13 18:40:00,71.2,-13.8,29.93,West,275,7.1,13.8,3,0.00,CLR,,0.00,WeatherDisplay:10.37,2013-04-13 22:40:00,
2013-04-13 18:41:00,71.4,-13.6,29.93,WSW,240,4.8,10.4,3,0.00,CLR,,0.00,WeatherDisplay:10.37,2013-04-13 22:41:00,
2013-04-13 18:44:00,71.4,-13.6,29.93,West,278,8.4,13.2,3,0.00,CLR,,0.00,WeatherDisplay:10.37,2013-04-13 22:44:00,
2013-04-13 18:45:00,71.4,-13.6,29.93,WNW,295,8.8,13.8,3,0.00,CLR,,0.00,WeatherDisplay:10.37,2013-04-13 22:45:00,
2013-04-13 18:46:00,71.5,-13.6,29.93,NNW,346,5.3,9.9,3,0.00,CLR,,0.00,WeatherDisplay:10.37,2013-04-13 22:46:00,
2013-04-13 18:49:00,70.8,-14.0,29.93,NW,309,8.3,12.7,3,0.00,CLR,,0.00,WeatherDisplay:10.37,2013-04-13 22:49:00,
2013-04-13 18:50:00,70.5,-14.2,29.93,West,275,10.4,13.8,3,0.00,CLR,,0.00,WeatherDisplay:10.37,2013-04-13 22:50:00,
2013-04-13 18:51:00,70.6,-14.2,29.93,NW,309,6.7,9.2,3,0.00,CLR,,0.00,WeatherDisplay:10.37,2013-04-13 22:51:00,
2013-04-13 18:54:00,70.6,-14.2,29.93,NW,304,10.7,21.9,3,0.00,CLR,,0.00,WeatherDisplay:10.37,2013-04-13 22:54:00,
2013-04-13 18:55:00,70.6,-14.2,29.93,West,281,8.2,21.9,3,0.00,CLR,,0.00,WeatherDisplay:10.37,2013-04-13 22:55:00,
2013-04-13 18:57:00,70.7,-14.1,29.94,NNW,330,7.5,12.7,3,0.00,CLR,,0.00,WeatherDisplay:10.37,2013-04-13 22:57:00,
2013-04-13 19:00:00,71.0,-13.9,29.94,WSW,254,4.5,8.1,3,0.00,CLR,,0.00,WeatherDisplay:10.37,2013-04-13 23:00:00,
2013-04-13 19:01:00,71.3,-13.7,29.94,NW,304,8.8,14.5,3,0.00,CLR,,0.00,WeatherDisplay:10.37,2013-04-13 23:01:00,
2013-04-13 19:02:00,70.6,-14.2,29.94,NNW,347,6.6,10.8,3,0.00,CLR,,0.00,WeatherDisplay:10.37,2013-04-13 23:02:00,
2013-04-13 19:05:00,70.6,-14.2,29.94,WNW,291,8.6,15.0,3,0.00,CLR,,0.00,WeatherDisplay:10.37,2013-04-13 23:05:00,
2013-04-13 19:07:00,71.2,-13.8,29.94,WNW,282,2.2,6.4,3,0.00,CLR,,0.00,WeatherDisplay:10.37,2013-04-13 23:07:00,
2013-04-13 19:10:00,70.9,-14.0,29.94,West,280,8.4,11.5,3,0.00,CLR,,0.00,WeatherDisplay:10.37,2013-04-13 23:10:00,
2013-04-13 19:12:00,70.8,-14.0,29.94,NW,304,8.0,12.5,3,0.00,CLR,,0.00,WeatherDisplay:10.37,2013-04-13 23:12:00,
2013-04-13 19:15:00,70.2,-14.4,29.94,West,261,9.1,20.7,3,0.00,CLR,,0.00,WeatherDisplay:10.37,2013-04-13 23:15:00,
2013-04-13 19:17:00,69.9,-14.6,29.94,West,264,7.5,12.7,3,0.00,CLR,,0.00,WeatherDisplay:10.37,2013-04-13 23:17:00,
2013-04-13 19:20:00,70.0,-14.6,29.94,WNW,292,9.8,14.9,3,0.00,CLR,,0.00,WeatherDisplay:10.37,2013-04-13 23:20:00,
2013-04-13 19:22:00,69.7,-14.8,29.94,West,281,7.5,21.9,3,0.00,CLR,,0.00,WeatherDisplay:10.37,2013-04-13 23:22:00,
2013-04-13 19:25:00,69.6,-14.8,29.94,WSW,254,9.8,15.0,3,0.00,CLR,,0.00,WeatherDisplay:10.37,2013-04-13 23:25:00,
2013-04-13 19:27:00,69.7,-14.8,29.95,NW,320,4.5,8.8,3,0.00,CLR,,0.00,WeatherDisplay:10.37,2013-04-13 23:27:00,
2013-04-13 19:28:00,69.6,-14.8,29.95,West,277,5.5,9.8,3,0.00,CLR,,0.00,WeatherDisplay:10.37,2013-04-13 23:28:00,
2013-04-13 19:30:00,68.9,-15.3,29.95,NW,306,8.3,15.0,3,0.00,CLR,,0.00,WeatherDisplay:10.37,2013-04-13 23:30:00,
2013-04-13 19:32:00,68.9,-9.6,29.94,WNW,302,2.0,8.1,4,0.00,CLR,,0.00,WeatherDisplay:10.37,2013-04-13 23:32:00,
2013-04-13 19:33:00,68.7,-15.5,29.95,West,261,6.4,11.5,3,0.00,CLR,,0.00,WeatherDisplay:10.37,2013-04-13 23:33:00,
2013-04-13 19:36:00,68.3,-15.7,29.95,WNW,295,7.3,12.7,3,0.00,CLR,,0.00,WeatherDisplay:10.37,2013-04-13 23:36:00,
2013-04-13 19:38:00,68.1,-15.9,29.95,WNW,294,9.8,12.7,3,0.00,CLR,,0.00,WeatherDisplay:10.37,2013-04-13 23:38:00,
2013-04-13 19:41:00,68.4,-15.7,29.95,WNW,285,8.1,13.8,3,0.00,CLR,,0.00,WeatherDisplay:10.37,2013-04-13 23:41:00,
2013-04-13 19:43:00,68.1,-15.9,29.95,NW,306,9.1,21.9,3,0.00,CLR,,0.00,WeatherDisplay:10.37,2013-04-13 23:43:00,
2013-04-13 19:44:00,68.2,-15.8,29.95,NW,313,7.7,13.8,3,0.00,CLR,,0.00,WeatherDisplay:10.37,2013-04-13 23:44:00,
2013-04-13 19:46:00,68.0,-15.9,29.95,WNW,287,8.6,13.8,3,0.00,CLR,,0.00,WeatherDisplay:10.37,2013-04-13 23:46:00,
2013-04-13 19:48:00,67.8,-16.1,29.95,WNW,296,9.7,23.0,3,0.00,CLR,,0.00,WeatherDisplay:10.37,2013-04-13 23:48:00,
2013-04-13 19:49:00,67.7,-16.1,29.95,WNW,298,10.9,16.1,3,0.00,CLR,,0.00,WeatherDisplay:10.37,2013-04-13 23:49:00,
2013-04-13 19:51:00,67.8,-16.1,29.95,West,270,7.9,13.8,3,0.00,CLR,,0.00,WeatherDisplay:10.37,2013-04-13 23:51:00,
2013-04-13 19:53:00,67.9,-16.0,29.95,West,263,9.6,13.8,3,0.00,CLR,,0.00,WeatherDisplay:10.37,2013-04-13 23:53:00,
2013-04-13 19:54:00,67.5,-16.3,29.95,NW,304,7.5,13.8,3,0.00,CLR,,0.00,WeatherDisplay:10.37,2013-04-13 23:54:00,
2013-04-13 19:56:00,67.7,-10.4,29.95,NW,304,7.3,12.7,4,0.00,CLR,,0.00,WeatherDisplay:10.37,2013-04-13 23:56:00,
2013-04-13 19:58:00,67.9,-16.0,29.95,WNW,299,7.4,10.3,3,0.00,CLR,,0.00,WeatherDisplay:10.37,2013-04-13 23:58:00,
2013-04-13 19:59:00,67.5,-10.5,29.95,NNW,340,6.9,9.2,4,0.00,CLR,,0.00,WeatherDisplay:10.37,2013-04-13 23:59:00,
2013-04-13 20:02:00,67.3,-10.7,29.95,NNW,337,1.3,8.1,4,0.00,CLR,,0.00,WeatherDisplay:10.37,2013-04-14 00:02:00,
2013-04-13 20:03:00,66.7,-11.1,29.95,NNW,328,1.2,4.2,4,0.00,CLR,,0.00,WeatherDisplay:10.37,2013-04-14 00:03:00,
2013-04-13 20:04:00,66.9,-10.9,29.95,WNW,289,3.6,3.6,4,0.00,CLR,,0.00,WeatherDisplay:10.37,2013-04-14 00:04:00,
2013-04-13 20:07:00,66.7,-11.1,29.95,NNW,342,5.4,9.2,4,0.00,CLR,,0.00,WeatherDisplay:10.37,2013-04-14 00:07:00,
2013-04-13 20:08:00,66.4,-11.3,29.96,NW,315,4.7,8.1,4,0.00,CLR,,0.00,WeatherDisplay:10.37,2013-04-14 00:08:00,
2013-04-13 20:09:00,66.7,-11.1,29.96,WSW,258,4.9,5.8,4,0.00,CLR,,0.00,WeatherDisplay:10.37,2013-04-14 00:09:00,
2013-04-13 20:12:00,66.3,-11.4,29.95,NW,325,6.8,11.5,4,0.00,CLR,,0.00,WeatherDisplay:10.37,2013-04-14 00:12:00,
2013-04-13 20:13:00,66.4,-11.3,29.96,WNW,291,7.1,15.8,4,0.00,CLR,,0.00,WeatherDisplay:10.37,2013-04-14 00:13:00,
2013-04-13 20:14:00,66.5,-11.2,29.96,WNW,289,9.1,16.1,4,0.00,CLR,,0.00,WeatherDisplay:10.37,2013-04-14 00:14:00,
2013-04-13 20:18:00,66.4,-11.3,29.96,NW,313,0.0,2.3,4,0.00,CLR,,0.00,WeatherDisplay:10.37,2013-04-14 00:18:00,
2013-04-13 20:19:00,66.1,-11.5,29.96,NNW,340,5.2,8.0,4,0.00,CLR,,0.00,WeatherDisplay:10.37,2013-04-14 00:19:00,
2013-04-13 20:23:00,66.1,-11.5,29.96,NW,315,6.0,8.1,4,0.00,CLR,,0.00,WeatherDisplay:10.37,2013-04-14 00:23:00,
2013-04-13 20:24:00,66.0,-11.6,29.96,SW,230,6.6,9.2,4,0.00,CLR,,0.00,WeatherDisplay:10.37,2013-04-14 00:24:00,
2013-04-13 20:25:00,65.9,-11.6,29.96,NW,306,6.5,10.3,4,0.00,CLR,,0.00,WeatherDisplay:10.37,2013-04-14 00:25:00,
2013-04-13 20:28:00,66.1,-11.5,29.96,NW,326,6.6,10.4,4,0.00,CLR,,0.00,WeatherDisplay:10.37,2013-04-14 00:28:00,
2013-04-13 20:29:00,66.0,-11.6,29.96,WNW,296,4.4,11.5,4,0.00,CLR,,0.00,WeatherDisplay:10.37,2013-04-14 00:29:00,
2013-04-13 20:30:00,66.1,-11.5,29.96,WNW,302,5.9,9.9,4,0.00,CLR,,0.00,WeatherDisplay:10.37,2013-04-14 00:30:00,
2013-04-13 20:33:00,65.9,-11.6,29.96,NW,312,7.9,11.7,4,0.00,CLR,,0.00,WeatherDisplay:10.37,2013-04-14 00:33:00,
2013-04-13 20:34:00,66.3,-11.4,29.96,WSW,248,8.5,15.0,4,0.00,CLR,,0.00,WeatherDisplay:10.37,2013-04-14 00:34:00,
2013-04-13 20:35:00,66.2,-11.4,29.96,WNW,301,8.2,10.4,4,0.00,CLR,,0.00,WeatherDisplay:10.37,2013-04-14 00:35:00,
2013-04-13 20:38:00,65.9,-11.6,29.97,West,265,9.8,12.7,4,0.00,CLR,,0.00,WeatherDisplay:10.37,2013-04-14 00:38:00,
2013-04-13 20:39:00,66.1,-11.5,29.96,NW,313,6.1,12.7,4,0.00,CLR,,0.00,WeatherDisplay:10.37,2013-04-14 00:39:00,
2013-04-13 20:40:00,66.1,-11.5,29.96,WSW,239,6.9,10.6,4,0.00,CLR,,0.00,WeatherDisplay:10.37,2013-04-14 00:40:00,
2013-04-13 20:44:00,66.2,-11.4,29.97,WNW,295,7.9,16.1,4,0.00,CLR,,0.00,WeatherDisplay:10.37,2013-04-14 00:44:00,
2013-04-13 20:45:00,66.0,-11.6,29.97,WNW,302,7.1,11.5,4,0.00,CLR,,0.00,WeatherDisplay:10.37,2013-04-14 00:45:00,
2013-04-13 20:49:00,66.0,-11.6,29.97,West,281,7.9,11.5,4,0.00,CLR,,0.00,WeatherDisplay:10.37,2013-04-14 00:49:00,
2013-04-13 20:50:00,66.1,-11.5,29.97,WNW,296,8.5,16.1,4,0.00,CLR,,0.00,WeatherDisplay:10.37,2013-04-14 00:50:00,
2013-04-13 20:51:00,66.1,-11.5,29.97,NW,325,7.7,12.7,4,0.00,CLR,,0.00,WeatherDisplay:10.37,2013-04-14 00:51:00,
2013-04-13 20:54:00,66.1,-11.5,29.97,WNW,295,7.9,15.0,4,0.00,CLR,,0.00,WeatherDisplay:10.37,2013-04-14 00:54:00,
2013-04-13 20:55:00,66.1,-11.5,29.97,NW,326,10.3,13.8,4,0.00,CLR,,0.00,WeatherDisplay:10.37,2013-04-14 00:55:00,
2013-04-13 20:56:00,66.2,-11.4,29.97,NW,313,7.4,11.5,4,0.00,CLR,,0.00,WeatherDisplay:10.37,2013-04-14 00:56:00,
2013-04-13 20:59:00,66.2,-11.4,29.98,NNW,329,4.5,9.2,4,0.00,CLR,,0.00,WeatherDisplay:10.37,2013-04-14 00:59:00,
2013-04-13 21:00:00,65.8,-11.7,29.97,NW,304,1.6,5.8,4,0.00,CLR,,0.00,WeatherDisplay:10.37,2013-04-14 01:00:00,
2013-04-13 21:01:00,65.7,-11.8,29.97,WNW,291,3.7,6.9,4,0.00,CLR,,0.00,WeatherDisplay:10.37,2013-04-14 01:01:00,
2013-04-13 21:04:00,65.6,-11.9,29.98,NW,311,6.0,9.2,4,0.00,CLR,,0.00,WeatherDisplay:10.37,2013-04-14 01:04:00,
2013-04-13 21:05:00,65.4,-12.0,29.98,NNW,335,2.7,6.9,4,0.00,CLR,,0.00,WeatherDisplay:10.37,2013-04-14 01:05:00,
2013-04-13 21:07:00,65.8,-11.7,29.98,West,270,6.4,10.4,4,0.00,CLR,,0.00,WeatherDisplay:10.37,2013-04-14 01:07:00,
2013-04-13 21:10:00,65.3,-12.1,29.98,WNW,282,2.8,6.9,4,0.00,CLR,,0.00,WeatherDisplay:10.37,2013-04-14 01:10:00,
2013-04-13 21:11:00,65.3,-12.1,29.98,WSW,248,0.5,2.9,4,0.00,CLR,,0.00,WeatherDisplay:10.37,2013-04-14 01:11:00,
2013-04-13 21:12:00,65.0,-12.3,29.98,NW,309,3.2,5.8,4,0.00,CLR,,0.00,WeatherDisplay:10.37,2013-04-14 01:12:00,
2013-04-13 21:15:00,65.2,-7.6,29.98,West,271,0.0,0.0,5,0.00,CLR,,0.00,WeatherDisplay:10.37,2013-04-14 01:15:00,
2013-04-13 21:17:00,65.0,-12.3,29.98,West,271,0.0,0.0,4,0.00,CLR,,0.00,WeatherDisplay:10.37,2013-04-14 01:17:00,
2013-04-13 21:20:00,64.4,-8.2,29.98,West,281,0.2,3.5,5,0.00,CLR,,0.00,WeatherDisplay:10.37,2013-04-14 01:20:00,
2013-04-13 21:21:00,64.6,-8.0,29.98,West,281,0.0,0.0,5,0.00,CLR,,0.00,WeatherDisplay:10.37,2013-04-14 01:21:00,
2013-04-13 21:22:00,64.8,-7.9,29.99,West,281,0.0,0.0,5,0.00,CLR,,0.00,WeatherDisplay:10.37,2013-04-14 01:22:00,
2013-04-13 21:23:00,64.7,-8.0,29.99,West,281,0.0,0.0,5,0.00,CLR,,0.00,WeatherDisplay:10.37,2013-04-14 01:23:00,
2013-04-13 21:25:00,64.6,-8.0,29.99,West,281,0.0,0.0,5,0.00,CLR,,0.00,WeatherDisplay:10.37,2013-04-14 01:25:00,
2013-04-13 21:26:00,64.4,-8.2,29.99,West,281,0.0,0.0,5,0.00,CLR,,0.00,WeatherDisplay:10.37,2013-04-14 01:26:00,
2013-04-13 21:28:00,64.3,-8.2,29.99,WNW,282,4.0,6.9,5,0.00,CLR,,0.00,WeatherDisplay:10.37,2013-04-14 01:28:00,
2013-04-13 21:30:00,64.2,-8.3,29.99,WNW,287,3.5,6.9,5,0.00,CLR,,0.00,WeatherDisplay:10.37,2013-04-14 01:30:00,
2013-04-13 21:31:00,64.0,-8.5,29.99,West,264,2.8,5.8,5,0.00,CLR,,0.00,WeatherDisplay:10.37,2013-04-14 01:31:00,
2013-04-13 21:33:00,64.2,-8.3,29.99,West,261,0.1,3.3,5,0.00,CLR,,0.00,WeatherDisplay:10.37,2013-04-14 01:33:00,
2013-04-13 21:36:00,64.1,-8.4,29.99,WNW,285,2.1,4.4,5,0.00,CLR,,0.00,WeatherDisplay:10.37,2013-04-14 01:36:00,
2013-04-13 21:38:00,64.1,-8.4,29.99,West,281,0.4,8.1,5,0.00,CLR,,0.00,WeatherDisplay:10.37,2013-04-14 01:38:00,
2013-04-13 21:39:00,64.3,-8.2,29.99,West,281,0.0,0.0,5,0.00,CLR,,0.00,WeatherDisplay:10.37,2013-04-14 01:39:00,
2013-04-13 21:41:00,64.5,-8.1,29.99,West,281,0.0,0.0,5,0.00,CLR,,0.00,WeatherDisplay:10.37,2013-04-14 01:41:00,
2013-04-13 21:43:00,63.8,-8.6,29.99,WNW,302,1.5,3.5,5,0.00,CLR,,0.00,WeatherDisplay:10.37,2013-04-14 01:43:00,
2013-04-13 21:44:00,64.3,-8.2,29.99,WNW,302,0.0,0.0,5,0.00,CLR,,0.00,WeatherDisplay:10.37,2013-04-14 01:44:00,
2013-04-13 21:46:00,63.9,-8.5,29.99,WNW,302,0.0,0.0,5,0.00,CLR,,0.00,WeatherDisplay:10.37,2013-04-14 01:46:00,
2013-04-13 21:48:00,64.0,-8.5,29.99,West,272,2.8,5.8,5,0.00,CLR,,0.00,WeatherDisplay:10.37,2013-04-14 01:48:00,
2013-04-13 21:49:00,63.9,-8.5,29.99,West,272,4.8,5.8,5,0.00,CLR,,0.00,WeatherDisplay:10.37,2013-04-14 01:49:00,
2013-04-13 21:51:00,64.0,-8.5,30.00,WSW,241,1.8,5.8,5,0.00,CLR,,0.00,WeatherDisplay:10.37,2013-04-14 01:51:00,
2013-04-13 21:53:00,63.7,-8.7,30.00,WSW,241,0.0,0.0,5,0.00,CLR,,0.00,WeatherDisplay:10.37,2013-04-14 01:53:00,
2013-04-13 21:54:00,63.7,-8.7,30.00,WSW,241,0.0,0.0,5,0.00,CLR,,0.00,WeatherDisplay:10.37,2013-04-14 01:54:00,
2013-04-13 21:56:00,63.9,-8.5,30.00,WSW,241,0.0,0.0,5,0.00,CLR,,0.00,WeatherDisplay:10.37,2013-04-14 01:56:00,
2013-04-13 21:58:00,63.5,-8.8,30.00,WSW,241,0.0,0.0,5,0.00,CLR,,0.00,WeatherDisplay:10.37,2013-04-14 01:58:00,
2013-04-13 21:59:00,63.5,-8.8,30.00,WSW,241,0.0,0.0,5,0.00,CLR,,0.00,WeatherDisplay:10.37,2013-04-14 01:59:00,
2013-04-13 22:01:00,63.1,-5.4,30.00,WSW,241,0.0,0.0,6,0.00,CLR,,0.00,WeatherDisplay:10.37,2013-04-14 02:01:00,
2013-04-13 22:03:00,63.5,-8.8,30.00,SSW,199,0.9,4.6,5,0.00,CLR,,0.00,WeatherDisplay:10.37,2013-04-14 02:03:00,
2013-04-13 22:04:00,63.0,-9.2,30.00,SSW,199,0.4,4.6,5,0.00,CLR,,0.00,WeatherDisplay:10.37,2013-04-14 02:04:00,
2013-04-13 22:07:00,63.1,-5.4,30.00,WSW,244,1.1,5.8,6,0.00,CLR,,0.00,WeatherDisplay:10.37,2013-04-14 02:07:00,
2013-04-13 22:09:00,63.0,-9.2,30.00,WSW,244,0.0,0.0,5,0.00,CLR,,0.00,WeatherDisplay:10.37,2013-04-14 02:09:00,
2013-04-13 22:12:00,63.0,-5.4,30.00,SW,236,0.0,0.0,6,0.00,CLR,,0.00,WeatherDisplay:10.37,2013-04-14 02:12:00,
2013-04-13 22:14:00,62.6,-5.7,30.00,SW,236,0.0,0.0,6,0.00,CLR,,0.00,WeatherDisplay:10.37,2013-04-14 02:14:00,
2013-04-13 22:17:00,63.0,-9.2,30.00,West,277,4.6,8.1,5,0.00,CLR,,0.00,WeatherDisplay:10.37,2013-04-14 02:17:00,
2013-04-13 22:19:00,62.8,-5.6,30.00,West,265,0.6,4.3,6,0.00,CLR,,0.00,WeatherDisplay:10.37,2013-04-14 02:19:00,
2013-04-13 22:22:00,63.0,-5.4,30.00,WSW,241,1.3,4.6,6,0.00,CLR,,0.00,WeatherDisplay:10.37,2013-04-14 02:22:00,
2013-04-13 22:24:00,62.9,-5.5,30.00,WSW,241,0.0,0.0,6,0.00,CLR,,0.00,WeatherDisplay:10.37,2013-04-14 02:24:00,
2013-04-13 22:25:00,63.3,-5.2,30.00,WSW,241,0.0,0.0,6,0.00,CLR,,0.00,WeatherDisplay:10.37,2013-04-14 02:25:00,
2013-04-13 22:27:00,62.6,-5.7,30.00,NW,315,4.6,8.1,6,0.00,CLR,,0.00,WeatherDisplay:10.37,2013-04-14 02:27:00,
2013-04-13 22:29:00,62.6,-5.7,30.00,WNW,282,4.5,6.9,6,0.00,CLR,,0.00,WeatherDisplay:10.37,2013-04-14 02:29:00,
2013-04-13 22:30:00,62.9,-9.2,30.00,West,268,3.6,6.9,5,0.00,CLR,,0.00,WeatherDisplay:10.37,2013-04-14 02:30:00,
2013-04-13 22:32:00,62.8,-5.6,30.00,West,263,0.0,0.0,6,0.00,CLR,,0.00,WeatherDisplay:10.37,2013-04-14 02:32:00,
2013-04-13 22:34:00,62.7,-5.6,30.00,West,274,2.8,4.6,6,0.00,CLR,,0.00,WeatherDisplay:10.37,2013-04-14 02:34:00,
2013-04-13 22:35:00,63.0,-5.4,30.00,West,274,0.8,4.6,6,0.00,CLR,,0.00,WeatherDisplay:10.37,2013-04-14 02:35:00,
2013-04-13 22:37:00,63.0,-5.4,30.00,WNW,288,5.0,6.9,6,0.00,CLR,,0.00,WeatherDisplay:10.37,2013-04-14 02:37:00,
2013-04-13 22:39:00,62.5,-5.8,30.00,NW,322,3.5,5.8,6,0.00,CLR,,0.00,WeatherDisplay:10.37,2013-04-14 02:39:00,
2013-04-13 22:40:00,62.6,-5.7,30.00,WNW,282,0.7,6.9,6,0.00,CLR,,0.00,WeatherDisplay:10.37,2013-04-14 02:40:00,
2013-04-13 22:42:00,62.5,-5.8,30.00,WNW,282,0.0,0.0,6,0.00,CLR,,0.00,WeatherDisplay:10.37,2013-04-14 02:42:00,
2013-04-13 22:44:00,62.1,-6.1,30.00,WNW,282,0.0,0.0,6,0.00,CLR,,0.00,WeatherDisplay:10.37,2013-04-14 02:44:00,
2013-04-13 22:45:00,62.3,-5.9,30.00,WNW,282,0.0,0.0,6,0.00,CLR,,0.00,WeatherDisplay:10.37,2013-04-14 02:45:00,
2013-04-13 22:47:00,62.4,-5.9,30.00,WNW,282,0.0,0.0,6,0.00,CLR,,0.00,WeatherDisplay:10.37,2013-04-14 02:47:00,
2013-04-13 22:49:00,62.2,-6.0,30.00,WNW,282,0.0,0.0,6,0.00,CLR,,0.00,WeatherDisplay:10.37,2013-04-14 02:49:00,
2013-04-13 22:50:00,62.3,-5.9,30.01,WNW,282,0.0,0.0,6,0.00,CLR,,0.00,WeatherDisplay:10.37,2013-04-14 02:50:00,
2013-04-13 22:53:00,61.8,-6.3,30.01,WNW,282,0.0,0.0,6,0.00,CLR,,0.00,WeatherDisplay:10.37,2013-04-14 02:53:00,
2013-04-13 22:54:00,61.9,-6.2,30.01,WNW,282,0.0,0.0,6,0.00,CLR,,0.00,WeatherDisplay:10.37,2013-04-14 02:54:00,
2013-04-13 22:55:00,61.8,-6.3,30.01,WNW,282,0.0,0.0,6,0.00,CLR,,0.00,WeatherDisplay:10.37,2013-04-14 02:55:00,
2013-04-13 22:58:00,61.5,-6.5,30.01,WNW,282,0.0,0.0,6,0.00,CLR,,0.00,WeatherDisplay:10.37,2013-04-14 02:58:00,
2013-04-13 22:59:00,61.7,-6.4,30.01,WNW,282,0.0,0.0,6,0.00,CLR,,0.00,WeatherDisplay:10.37,2013-04-14 02:59:00,
2013-04-13 23:00:00,61.5,-6.5,30.01,WNW,282,0.0,0.0,6,0.00,CLR,,0.00,WeatherDisplay:10.37,2013-04-14 03:00:00,
2013-04-13 23:03:00,61.5,-6.5,30.01,WNW,282,0.0,0.0,6,0.00,CLR,,0.00,WeatherDisplay:10.37,2013-04-14 03:03:00,
2013-04-13 23:05:00,61.5,-6.5,30.01,WNW,282,0.0,0.0,6,0.00,CLR,,0.00,WeatherDisplay:10.37,2013-04-14 03:05:00,
2013-04-13 23:06:00,61.5,-6.5,30.01,WNW,282,0.0,0.0,6,0.00,CLR,,0.00,WeatherDisplay:10.37,2013-04-14 03:06:00,
2013-04-13 23:08:00,60.9,-7.0,30.01,WNW,282,0.0,0.0,6,0.00,CLR,,0.00,WeatherDisplay:10.37,2013-04-14 03:08:00,
2013-04-13 23:10:00,61.2,-6.7,30.01,WNW,282,0.0,0.0,6,0.00,CLR,,0.00,WeatherDisplay:10.37,2013-04-14 03:10:00,
2013-04-13 23:11:00,61.4,-6.6,30.01,WNW,282,0.0,0.0,6,0.00,CLR,,0.00,WeatherDisplay:10.37,2013-04-14 03:11:00,
2013-04-13 23:14:00,60.9,-7.0,30.01,WNW,282,0.0,0.0,6,0.00,CLR,,0.00,WeatherDisplay:10.37,2013-04-14 03:14:00,
2013-04-13 23:15:00,61.2,-6.7,30.01,WNW,282,0.0,0.0,6,0.00,CLR,,0.00,WeatherDisplay:10.37,2013-04-14 03:15:00,
2013-04-13 23:16:00,60.9,-7.0,30.01,WNW,282,0.0,0.0,6,0.00,CLR,,0.00,WeatherDisplay:10.37,2013-04-14 03:16:00,
2013-04-13 23:19:00,61.0,-6.9,30.01,WNW,282,0.0,0.0,6,0.00,CLR,,0.00,WeatherDisplay:10.37,2013-04-14 03:19:00,
2013-04-13 23:20:00,60.8,-3.8,30.01,WNW,282,0.0,0.0,7,0.00,CLR,,0.00,WeatherDisplay:10.37,2013-04-14 03:20:00,
2013-04-13 23:21:00,60.9,-0.9,30.01,WNW,282,0.0,0.0,8,0.00,CLR,,0.00,WeatherDisplay:10.37,2013-04-14 03:21:00,
2013-04-13 23:24:00,60.7,-7.1,30.01,WNW,282,0.0,0.0,6,0.00,CLR,,0.00,WeatherDisplay:10.37,2013-04-14 03:24:00,
2013-04-13 23:25:00,60.2,-7.5,30.01,WNW,282,0.0,0.0,6,0.00,CLR,,0.00,WeatherDisplay:10.37,2013-04-14 03:25:00,
2013-04-13 23:27:00,60.5,1.3,30.01,WNW,282,0.0,0.0,9,0.00,CLR,,0.00,WeatherDisplay:10.37,2013-04-14 03:27:00,
2013-04-13 23:29:00,60.1,7.2,30.02,WNW,282,0.0,0.0,12,0.00,CLR,,0.00,WeatherDisplay:10.37,2013-04-14 03:29:00,
2013-04-13 23:31:00,60.4,7.5,30.02,WNW,282,0.0,0.0,12,0.00,CLR,,0.00,WeatherDisplay:10.37,2013-04-14 03:31:00,
2013-04-13 23:32:00,59.7,10.3,30.02,WNW,282,0.0,0.0,14,0.00,CLR,,0.00,WeatherDisplay:10.37,2013-04-14 03:32:00,
2013-04-13 23:33:00,59.9,7.1,30.02,WNW,282,0.0,0.0,12,0.00,CLR,,0.00,WeatherDisplay:10.37,2013-04-14 03:33:00,
2013-04-13 23:34:00,60.3,7.4,30.02,WNW,282,0.0,0.0,12,0.00,CLR,,0.00,WeatherDisplay:10.37,2013-04-14 03:34:00,
2013-04-13 23:36:00,60.4,10.9,30.02,WNW,282,0.0,0.0,14,0.00,CLR,,0.00,WeatherDisplay:10.37,2013-04-14 03:36:00,
2013-04-13 23:37:00,60.3,12.4,30.02,WNW,282,0.0,0.0,15,0.00,CLR,,0.00,WeatherDisplay:10.37,2013-04-14 03:37:00,
2013-04-13 23:38:00,60.3,10.8,30.02,WNW,282,0.0,0.0,14,0.00,CLR,,0.00,WeatherDisplay:10.37,2013-04-14 03:38:00,
2013-04-13 23:39:00,60.3,10.8,30.02,WNW,282,0.0,0.0,14,0.00,CLR,,0.00,WeatherDisplay:10.37,2013-04-14 03:39:00,
2013-04-13 23:41:00,59.7,8.7,30.02,WNW,282,0.0,0.0,13,0.00,CLR,,0.00,WeatherDisplay:10.37,2013-04-14 03:41:00,
2013-04-13 23:43:00,60.4,12.5,30.02,WNW,282,0.0,0.0,15,0.00,CLR,,0.00,WeatherDisplay:10.37,2013-04-14 03:43:00,
2013-04-13 23:45:00,60.1,5.3,30.02,WNW,282,0.0,0.0,11,0.00,CLR,,0.00,WeatherDisplay:10.37,2013-04-14 03:45:00,
2013-04-13 23:47:00,59.9,8.8,30.02,WNW,282,0.0,0.0,13,0.00,CLR,,0.00,WeatherDisplay:10.37,2013-04-14 03:47:00,
2013-04-13 23:48:00,59.6,4.9,30.02,WNW,282,0.0,0.0,11,0.00,CLR,,0.00,WeatherDisplay:10.37,2013-04-14 03:48:00,
2013-04-13 23:50:00,59.1,9.9,30.02,WNW,282,0.0,0.0,14,0.00,CLR,,0.00,WeatherDisplay:10.37,2013-04-14 03:50:00,
2013-04-13 23:52:00,58.7,11.1,30.02,WNW,282,0.0,0.0,15,0.00,CLR,,0.00,WeatherDisplay:10.37,2013-04-14 03:52:00,
2013-04-13 23:53:00,58.5,10.9,30.02,WNW,282,0.0,0.0,15,0.00,CLR,,0.00,WeatherDisplay:10.37,2013-04-14 03:53:00,
2013-04-13 23:54:00,58.5,10.9,30.02,WNW,282,0.0,0.0,15,0.00,CLR,,0.00,WeatherDisplay:10.37,2013-04-14 03:54:00,
2013-04-13 23:55:00,58.4,10.9,30.02,WNW,282,0.0,0.0,15,0.00,CLR,,0.00,WeatherDisplay:10.37,2013-04-14 03:55:00,
2013-04-13 23:57:00,58.7,11.1,30.03,WNW,282,0.0,0.0,15,0.00,CLR,,0.00,WeatherDisplay:10.37,2013-04-14 03:57:00,
2013-04-13 23:59:00,59.2,6.5,30.03,WNW,282,0.0,0.0,12,0.00,CLR,,0.00,WeatherDisplay:10.37,2013-04-14 03:59:00,